<?xml version="1.0" encoding="utf-8"?>
<gpx xmlns:xsi="http://www.w3.org/2001/XMLSchema-instance" xmlns:xsd="http://www.w3.org/2001/XMLSchema" version="1.1" creator="Shapelink.com" xmlns="http://www.topografix.com/GPX/1/1" xmlns:gpxtpx="http://www.garmin.com/xmlschemas/TrackPointExtension/v1">
  <metadata>
    <name>Löpning 14.88 km, 2011-09-03</name>
    <desc></desc>
    <author><name>Alexander Engvall</name></author> 
    <time>2011-09-03T10:14:27Z</time>
  </metadata>
  <trk>
    <name>Löpning 14.88 km, 2011-09-03</name>
    <trkseg>
      <trkpt lat="59.3820501" lon="17.9698673">
        <ele>14.557</ele>
        <time>2011-09-03T10:14:27Z</time>
      </trkpt>
      <trkpt lat="59.3822145" lon="17.9700112">
        <ele>15.5184</ele>
        <time>2011-09-03T10:14:33Z</time>
      </trkpt>
      <trkpt lat="59.3823357" lon="17.970107">
        <ele>16.9604</ele>
        <time>2011-09-03T10:14:38Z</time>
      </trkpt>
      <trkpt lat="59.3824578" lon="17.9702139">
        <ele>18.8831</ele>
        <time>2011-09-03T10:14:43Z</time>
      </trkpt>
      <trkpt lat="59.3826154" lon="17.9702856">
        <ele>19.8444</ele>
        <time>2011-09-03T10:14:49Z</time>
      </trkpt>
      <trkpt lat="59.3827709" lon="17.9702887">
        <ele>21.2864</ele>
        <time>2011-09-03T10:14:55Z</time>
      </trkpt>
      <trkpt lat="59.3828988" lon="17.9702732">
        <ele>21.2864</ele>
        <time>2011-09-03T10:15:00Z</time>
      </trkpt>
      <trkpt lat="59.3830281" lon="17.970282">
        <ele>22.2476</ele>
        <time>2011-09-03T10:15:05Z</time>
      </trkpt>
      <trkpt lat="59.3831422" lon="17.9702641">
        <ele>24.1703</ele>
        <time>2011-09-03T10:15:10Z</time>
      </trkpt>
      <trkpt lat="59.3832747" lon="17.9702539">
        <ele>27.5349</ele>
        <time>2011-09-03T10:15:15Z</time>
      </trkpt>
      <trkpt lat="59.3834354" lon="17.970184">
        <ele>31.8607</ele>
        <time>2011-09-03T10:15:22Z</time>
      </trkpt>
      <trkpt lat="59.3835376" lon="17.9700619">
        <ele>33.7834</ele>
        <time>2011-09-03T10:15:27Z</time>
      </trkpt>
      <trkpt lat="59.3836374" lon="17.9699128">
        <ele>35.7061</ele>
        <time>2011-09-03T10:15:33Z</time>
      </trkpt>
      <trkpt lat="59.3836784" lon="17.9698419">
        <ele>36.1868</ele>
        <time>2011-09-03T10:15:36Z</time>
      </trkpt>
      <trkpt lat="59.3837079" lon="17.9696957">
        <ele>38.1094</ele>
        <time>2011-09-03T10:15:41Z</time>
      </trkpt>
      <trkpt lat="59.3837461" lon="17.9695336">
        <ele>38.5901</ele>
        <time>2011-09-03T10:15:45Z</time>
      </trkpt>
      <trkpt lat="59.383809" lon="17.9693808">
        <ele>39.0707</ele>
        <time>2011-09-03T10:15:49Z</time>
      </trkpt>
      <trkpt lat="59.3838861" lon="17.9691814">
        <ele>38.1094</ele>
        <time>2011-09-03T10:15:54Z</time>
      </trkpt>
      <trkpt lat="59.3840021" lon="17.9690913">
        <ele>36.1868</ele>
        <time>2011-09-03T10:15:59Z</time>
      </trkpt>
      <trkpt lat="59.3841605" lon="17.9690715">
        <ele>34.7449</ele>
        <time>2011-09-03T10:16:06Z</time>
      </trkpt>
      <trkpt lat="59.3842987" lon="17.9690423">
        <ele>36.6675</ele>
        <time>2011-09-03T10:16:12Z</time>
      </trkpt>
      <trkpt lat="59.3844279" lon="17.9690903">
        <ele>36.1868</ele>
        <time>2011-09-03T10:16:17Z</time>
      </trkpt>
      <trkpt lat="59.3846036" lon="17.9691403">
        <ele>34.7449</ele>
        <time>2011-09-03T10:16:24Z</time>
      </trkpt>
      <trkpt lat="59.3847127" lon="17.9691773">
        <ele>36.1868</ele>
        <time>2011-09-03T10:16:28Z</time>
      </trkpt>
      <trkpt lat="59.3848742" lon="17.9691965">
        <ele>40.5128</ele>
        <time>2011-09-03T10:16:34Z</time>
      </trkpt>
      <trkpt lat="59.3850531" lon="17.9692079">
        <ele>40.0321</ele>
        <time>2011-09-03T10:16:40Z</time>
      </trkpt>
      <trkpt lat="59.3852334" lon="17.9692617">
        <ele>39.5513</ele>
        <time>2011-09-03T10:16:46Z</time>
      </trkpt>
      <trkpt lat="59.3853935" lon="17.969314">
        <ele>37.6287</ele>
        <time>2011-09-03T10:16:51Z</time>
      </trkpt>
      <trkpt lat="59.3855319" lon="17.969316">
        <ele>38.1094</ele>
        <time>2011-09-03T10:16:55Z</time>
      </trkpt>
      <trkpt lat="59.3856934" lon="17.969272">
        <ele>37.6287</ele>
        <time>2011-09-03T10:17:00Z</time>
      </trkpt>
      <trkpt lat="59.3858032" lon="17.9692284">
        <ele>37.6287</ele>
        <time>2011-09-03T10:17:04Z</time>
      </trkpt>
      <trkpt lat="59.3859386" lon="17.9691906">
        <ele>37.6287</ele>
        <time>2011-09-03T10:17:09Z</time>
      </trkpt>
      <trkpt lat="59.3860757" lon="17.9691703">
        <ele>35.7061</ele>
        <time>2011-09-03T10:17:13Z</time>
      </trkpt>
      <trkpt lat="59.3861905" lon="17.9689916">
        <ele>35.2255</ele>
        <time>2011-09-03T10:17:18Z</time>
      </trkpt>
      <trkpt lat="59.3862913" lon="17.9687752">
        <ele>33.7834</ele>
        <time>2011-09-03T10:17:23Z</time>
      </trkpt>
      <trkpt lat="59.3863793" lon="17.9685606">
        <ele>35.2255</ele>
        <time>2011-09-03T10:17:28Z</time>
      </trkpt>
      <trkpt lat="59.3864776" lon="17.96835">
        <ele>34.7449</ele>
        <time>2011-09-03T10:17:33Z</time>
      </trkpt>
      <trkpt lat="59.3866156" lon="17.9681355">
        <ele>32.8223</ele>
        <time>2011-09-03T10:17:39Z</time>
      </trkpt>
      <trkpt lat="59.386757" lon="17.9679833">
        <ele>33.3029</ele>
        <time>2011-09-03T10:17:44Z</time>
      </trkpt>
      <trkpt lat="59.3868822" lon="17.9678801">
        <ele>31.8607</ele>
        <time>2011-09-03T10:17:49Z</time>
      </trkpt>
      <trkpt lat="59.3870107" lon="17.9677787">
        <ele>31.3801</ele>
        <time>2011-09-03T10:17:54Z</time>
      </trkpt>
      <trkpt lat="59.3871563" lon="17.9676917">
        <ele>32.3416</ele>
        <time>2011-09-03T10:17:59Z</time>
      </trkpt>
      <trkpt lat="59.3873422" lon="17.9676585">
        <ele>31.3801</ele>
        <time>2011-09-03T10:18:04Z</time>
      </trkpt>
      <trkpt lat="59.3875011" lon="17.9675755">
        <ele>30.4188</ele>
        <time>2011-09-03T10:18:09Z</time>
      </trkpt>
      <trkpt lat="59.3876862" lon="17.9675834">
        <ele>26.5736</ele>
        <time>2011-09-03T10:18:14Z</time>
      </trkpt>
      <trkpt lat="59.3878224" lon="17.9675746">
        <ele>25.1317</ele>
        <time>2011-09-03T10:18:18Z</time>
      </trkpt>
      <trkpt lat="59.3879753" lon="17.9675474">
        <ele>23.6896</ele>
        <time>2011-09-03T10:18:22Z</time>
      </trkpt>
      <trkpt lat="59.388088" lon="17.967505">
        <ele>23.209</ele>
        <time>2011-09-03T10:18:26Z</time>
      </trkpt>
      <trkpt lat="59.3882265" lon="17.9674528">
        <ele>22.7283</ele>
        <time>2011-09-03T10:18:31Z</time>
      </trkpt>
      <trkpt lat="59.3884179" lon="17.9674125">
        <ele>21.767</ele>
        <time>2011-09-03T10:18:37Z</time>
      </trkpt>
      <trkpt lat="59.388585" lon="17.9673498">
        <ele>22.7283</ele>
        <time>2011-09-03T10:18:42Z</time>
      </trkpt>
      <trkpt lat="59.3886958" lon="17.9672352">
        <ele>24.1703</ele>
        <time>2011-09-03T10:18:46Z</time>
      </trkpt>
      <trkpt lat="59.3887871" lon="17.96703">
        <ele>26.0929</ele>
        <time>2011-09-03T10:18:50Z</time>
      </trkpt>
      <trkpt lat="59.3888802" lon="17.9667567">
        <ele>25.1317</ele>
        <time>2011-09-03T10:18:55Z</time>
      </trkpt>
      <trkpt lat="59.3889722" lon="17.9664398">
        <ele>25.6123</ele>
        <time>2011-09-03T10:19:00Z</time>
      </trkpt>
      <trkpt lat="59.3890339" lon="17.9661215">
        <ele>29.4575</ele>
        <time>2011-09-03T10:19:04Z</time>
      </trkpt>
      <trkpt lat="59.3890987" lon="17.9657972">
        <ele>30.4188</ele>
        <time>2011-09-03T10:19:09Z</time>
      </trkpt>
      <trkpt lat="59.3891546" lon="17.9656112">
        <ele>28.9769</ele>
        <time>2011-09-03T10:19:13Z</time>
      </trkpt>
      <trkpt lat="59.3892497" lon="17.9653693">
        <ele>26.5736</ele>
        <time>2011-09-03T10:19:17Z</time>
      </trkpt>
      <trkpt lat="59.3893545" lon="17.9651619">
        <ele>25.1317</ele>
        <time>2011-09-03T10:19:21Z</time>
      </trkpt>
      <trkpt lat="59.3895001" lon="17.9649984">
        <ele>20.325</ele>
        <time>2011-09-03T10:19:26Z</time>
      </trkpt>
      <trkpt lat="59.38968" lon="17.9648141">
        <ele>17.9218</ele>
        <time>2011-09-03T10:19:32Z</time>
      </trkpt>
      <trkpt lat="59.3897166" lon="17.964788">
        <ele>17.9218</ele>
        <time>2011-09-03T10:19:33Z</time>
      </trkpt>
      <trkpt lat="59.3898112" lon="17.9646363">
        <ele>16.9604</ele>
        <time>2011-09-03T10:19:37Z</time>
      </trkpt>
      <trkpt lat="59.3899432" lon="17.9644021">
        <ele>14.557</ele>
        <time>2011-09-03T10:19:43Z</time>
      </trkpt>
      <trkpt lat="59.3901021" lon="17.9641651">
        <ele>15.0377</ele>
        <time>2011-09-03T10:19:49Z</time>
      </trkpt>
      <trkpt lat="59.3902311" lon="17.9639651">
        <ele>13.5958</ele>
        <time>2011-09-03T10:19:54Z</time>
      </trkpt>
      <trkpt lat="59.3903657" lon="17.9637604">
        <ele>13.1151</ele>
        <time>2011-09-03T10:19:59Z</time>
      </trkpt>
      <trkpt lat="59.390501" lon="17.9636025">
        <ele>11.6732</ele>
        <time>2011-09-03T10:20:04Z</time>
      </trkpt>
      <trkpt lat="59.3906167" lon="17.9635029">
        <ele>11.1925</ele>
        <time>2011-09-03T10:20:08Z</time>
      </trkpt>
      <trkpt lat="59.390731" lon="17.9633952">
        <ele>10.2312</ele>
        <time>2011-09-03T10:20:12Z</time>
      </trkpt>
      <trkpt lat="59.3908056" lon="17.9632582">
        <ele>10.7118</ele>
        <time>2011-09-03T10:20:16Z</time>
      </trkpt>
      <trkpt lat="59.3908538" lon="17.9631972">
        <ele>10.7118</ele>
        <time>2011-09-03T10:20:19Z</time>
      </trkpt>
      <trkpt lat="59.3909248" lon="17.9630246">
        <ele>14.557</ele>
        <time>2011-09-03T10:20:23Z</time>
      </trkpt>
      <trkpt lat="59.3910593" lon="17.9629065">
        <ele>17.4412</ele>
        <time>2011-09-03T10:20:28Z</time>
      </trkpt>
      <trkpt lat="59.3911927" lon="17.9627324">
        <ele>18.8831</ele>
        <time>2011-09-03T10:20:33Z</time>
      </trkpt>
      <trkpt lat="59.3912772" lon="17.96253">
        <ele>20.8057</ele>
        <time>2011-09-03T10:20:37Z</time>
      </trkpt>
      <trkpt lat="59.3914098" lon="17.9623323">
        <ele>19.8444</ele>
        <time>2011-09-03T10:20:43Z</time>
      </trkpt>
      <trkpt lat="59.3914535" lon="17.9621">
        <ele>22.2476</ele>
        <time>2011-09-03T10:20:47Z</time>
      </trkpt>
      <trkpt lat="59.3915253" lon="17.9617702">
        <ele>26.5736</ele>
        <time>2011-09-03T10:20:53Z</time>
      </trkpt>
      <trkpt lat="59.3915827" lon="17.9615806">
        <ele>26.0929</ele>
        <time>2011-09-03T10:20:57Z</time>
      </trkpt>
      <trkpt lat="59.3916536" lon="17.9613483">
        <ele>25.1317</ele>
        <time>2011-09-03T10:21:02Z</time>
      </trkpt>
      <trkpt lat="59.391651" lon="17.9610688">
        <ele>28.4962</ele>
        <time>2011-09-03T10:21:06Z</time>
      </trkpt>
      <trkpt lat="59.3916529" lon="17.9609521">
        <ele>30.4188</ele>
        <time>2011-09-03T10:21:08Z</time>
      </trkpt>
      <trkpt lat="59.3916516" lon="17.9606371">
        <ele>34.2642</ele>
        <time>2011-09-03T10:21:13Z</time>
      </trkpt>
      <trkpt lat="59.3916729" lon="17.9603212">
        <ele>33.3029</ele>
        <time>2011-09-03T10:21:18Z</time>
      </trkpt>
      <trkpt lat="59.3917056" lon="17.9602377">
        <ele>31.3801</ele>
        <time>2011-09-03T10:21:20Z</time>
      </trkpt>
      <trkpt lat="59.3918495" lon="17.9601012">
        <ele>23.209</ele>
        <time>2011-09-03T10:21:26Z</time>
      </trkpt>
      <trkpt lat="59.3919794" lon="17.9599705">
        <ele>18.8831</ele>
        <time>2011-09-03T10:21:30Z</time>
      </trkpt>
      <trkpt lat="59.3921339" lon="17.9597919">
        <ele>15.0377</ele>
        <time>2011-09-03T10:21:35Z</time>
      </trkpt>
      <trkpt lat="59.3922768" lon="17.959655">
        <ele>11.6732</ele>
        <time>2011-09-03T10:21:40Z</time>
      </trkpt>
      <trkpt lat="59.3923882" lon="17.9595427">
        <ele>10.2312</ele>
        <time>2011-09-03T10:21:44Z</time>
      </trkpt>
      <trkpt lat="59.3925524" lon="17.9596479">
        <ele>11.1925</ele>
        <time>2011-09-03T10:21:50Z</time>
      </trkpt>
      <trkpt lat="59.3926584" lon="17.9598618">
        <ele>12.1538</ele>
        <time>2011-09-03T10:21:55Z</time>
      </trkpt>
      <trkpt lat="59.3927555" lon="17.9601073">
        <ele>13.5958</ele>
        <time>2011-09-03T10:22:00Z</time>
      </trkpt>
      <trkpt lat="59.3928808" lon="17.9603344">
        <ele>15.999</ele>
        <time>2011-09-03T10:22:06Z</time>
      </trkpt>
      <trkpt lat="59.39302" lon="17.9606302">
        <ele>16.9604</ele>
        <time>2011-09-03T10:22:13Z</time>
      </trkpt>
      <trkpt lat="59.3931244" lon="17.9609165">
        <ele>15.999</ele>
        <time>2011-09-03T10:22:19Z</time>
      </trkpt>
      <trkpt lat="59.3932061" lon="17.9612004">
        <ele>15.999</ele>
        <time>2011-09-03T10:22:24Z</time>
      </trkpt>
      <trkpt lat="59.3932911" lon="17.9614391">
        <ele>16.9604</ele>
        <time>2011-09-03T10:22:29Z</time>
      </trkpt>
      <trkpt lat="59.393367" lon="17.9616868">
        <ele>16.4797</ele>
        <time>2011-09-03T10:22:34Z</time>
      </trkpt>
      <trkpt lat="59.3934485" lon="17.961944">
        <ele>22.2476</ele>
        <time>2011-09-03T10:22:40Z</time>
      </trkpt>
      <trkpt lat="59.3934895" lon="17.9620595">
        <ele>27.0543</ele>
        <time>2011-09-03T10:22:44Z</time>
      </trkpt>
      <trkpt lat="59.3935054" lon="17.962116">
        <ele>28.0155</ele>
        <time>2011-09-03T10:22:46Z</time>
      </trkpt>
      <trkpt lat="59.3935459" lon="17.9622725">
        <ele>33.3029</ele>
        <time>2011-09-03T10:22:52Z</time>
      </trkpt>
      <trkpt lat="59.3935635" lon="17.9623268">
        <ele>33.3029</ele>
        <time>2011-09-03T10:22:54Z</time>
      </trkpt>
      <trkpt lat="59.3936796" lon="17.9625233">
        <ele>33.3029</ele>
        <time>2011-09-03T10:23:01Z</time>
      </trkpt>
      <trkpt lat="59.3937483" lon="17.9627408">
        <ele>32.8223</ele>
        <time>2011-09-03T10:23:07Z</time>
      </trkpt>
      <trkpt lat="59.3938344" lon="17.962872">
        <ele>35.2255</ele>
        <time>2011-09-03T10:23:12Z</time>
      </trkpt>
      <trkpt lat="59.3939018" lon="17.9630626">
        <ele>38.1094</ele>
        <time>2011-09-03T10:23:17Z</time>
      </trkpt>
      <trkpt lat="59.3939903" lon="17.963264">
        <ele>40.5128</ele>
        <time>2011-09-03T10:23:22Z</time>
      </trkpt>
      <trkpt lat="59.3940495" lon="17.9635592">
        <ele>36.6675</ele>
        <time>2011-09-03T10:23:26Z</time>
      </trkpt>
      <trkpt lat="59.3941038" lon="17.9636998">
        <ele>35.2255</ele>
        <time>2011-09-03T10:23:29Z</time>
      </trkpt>
      <trkpt lat="59.3942669" lon="17.963676">
        <ele>32.8223</ele>
        <time>2011-09-03T10:23:36Z</time>
      </trkpt>
      <trkpt lat="59.3943811" lon="17.9636526">
        <ele>31.3801</ele>
        <time>2011-09-03T10:23:41Z</time>
      </trkpt>
      <trkpt lat="59.3944312" lon="17.9636671">
        <ele>29.4575</ele>
        <time>2011-09-03T10:23:43Z</time>
      </trkpt>
      <trkpt lat="59.3945194" lon="17.963669">
        <ele>28.9769</ele>
        <time>2011-09-03T10:23:46Z</time>
      </trkpt>
      <trkpt lat="59.3946282" lon="17.9637354">
        <ele>28.4962</ele>
        <time>2011-09-03T10:23:50Z</time>
      </trkpt>
      <trkpt lat="59.3948289" lon="17.9637538">
        <ele>30.4188</ele>
        <time>2011-09-03T10:23:58Z</time>
      </trkpt>
      <trkpt lat="59.3949321" lon="17.9638205">
        <ele>29.9381</ele>
        <time>2011-09-03T10:24:02Z</time>
      </trkpt>
      <trkpt lat="59.3951088" lon="17.9639571">
        <ele>28.4962</ele>
        <time>2011-09-03T10:24:07Z</time>
      </trkpt>
      <trkpt lat="59.395226" lon="17.9640203">
        <ele>28.0155</ele>
        <time>2011-09-03T10:24:11Z</time>
      </trkpt>
      <trkpt lat="59.3953383" lon="17.9640049">
        <ele>28.9769</ele>
        <time>2011-09-03T10:24:15Z</time>
      </trkpt>
      <trkpt lat="59.3955117" lon="17.9639952">
        <ele>30.8995</ele>
        <time>2011-09-03T10:24:21Z</time>
      </trkpt>
      <trkpt lat="59.3956848" lon="17.9640246">
        <ele>33.7834</ele>
        <time>2011-09-03T10:24:27Z</time>
      </trkpt>
      <trkpt lat="59.3958143" lon="17.9640964">
        <ele>37.6287</ele>
        <time>2011-09-03T10:24:32Z</time>
      </trkpt>
      <trkpt lat="59.3959348" lon="17.964244">
        <ele>41.474</ele>
        <time>2011-09-03T10:24:37Z</time>
      </trkpt>
      <trkpt lat="59.3960053" lon="17.9644357">
        <ele>45.3192</ele>
        <time>2011-09-03T10:24:42Z</time>
      </trkpt>
      <trkpt lat="59.3960444" lon="17.9646809">
        <ele>44.8386</ele>
        <time>2011-09-03T10:24:47Z</time>
      </trkpt>
      <trkpt lat="59.3960516" lon="17.964734">
        <ele>44.358</ele>
        <time>2011-09-03T10:24:48Z</time>
      </trkpt>
      <trkpt lat="59.3961286" lon="17.9649094">
        <ele>49.6453</ele>
        <time>2011-09-03T10:24:53Z</time>
      </trkpt>
      <trkpt lat="59.3961939" lon="17.9651362">
        <ele>51.5679</ele>
        <time>2011-09-03T10:24:57Z</time>
      </trkpt>
      <trkpt lat="59.3961962" lon="17.9655088">
        <ele>46.7612</ele>
        <time>2011-09-03T10:25:02Z</time>
      </trkpt>
      <trkpt lat="59.3962185" lon="17.9659137">
        <ele>47.2418</ele>
        <time>2011-09-03T10:25:08Z</time>
      </trkpt>
      <trkpt lat="59.3961946" lon="17.9661827">
        <ele>45.3192</ele>
        <time>2011-09-03T10:25:12Z</time>
      </trkpt>
      <trkpt lat="59.3961565" lon="17.9664285">
        <ele>44.8386</ele>
        <time>2011-09-03T10:25:17Z</time>
      </trkpt>
      <trkpt lat="59.3960665" lon="17.9667944">
        <ele>43.3966</ele>
        <time>2011-09-03T10:25:23Z</time>
      </trkpt>
      <trkpt lat="59.3959964" lon="17.967">
        <ele>41.474</ele>
        <time>2011-09-03T10:25:26Z</time>
      </trkpt>
      <trkpt lat="59.3959033" lon="17.9671798">
        <ele>37.6287</ele>
        <time>2011-09-03T10:25:31Z</time>
      </trkpt>
      <trkpt lat="59.3957706" lon="17.9674805">
        <ele>33.3029</ele>
        <time>2011-09-03T10:25:37Z</time>
      </trkpt>
      <trkpt lat="59.3956269" lon="17.9677449">
        <ele>29.4575</ele>
        <time>2011-09-03T10:25:43Z</time>
      </trkpt>
      <trkpt lat="59.3955613" lon="17.9678433">
        <ele>32.3416</ele>
        <time>2011-09-03T10:25:46Z</time>
      </trkpt>
      <trkpt lat="59.3954888" lon="17.9680319">
        <ele>30.8995</ele>
        <time>2011-09-03T10:25:51Z</time>
      </trkpt>
      <trkpt lat="59.3954719" lon="17.9680676">
        <ele>31.8607</ele>
        <time>2011-09-03T10:25:52Z</time>
      </trkpt>
      <trkpt lat="59.3953859" lon="17.9684059">
        <ele>32.8223</ele>
        <time>2011-09-03T10:25:58Z</time>
      </trkpt>
      <trkpt lat="59.3953401" lon="17.968627">
        <ele>36.6675</ele>
        <time>2011-09-03T10:26:03Z</time>
      </trkpt>
      <trkpt lat="59.3953677" lon="17.9688333">
        <ele>35.7061</ele>
        <time>2011-09-03T10:26:07Z</time>
      </trkpt>
      <trkpt lat="59.3954293" lon="17.9691104">
        <ele>35.7061</ele>
        <time>2011-09-03T10:26:12Z</time>
      </trkpt>
      <trkpt lat="59.3954407" lon="17.9692664">
        <ele>39.0707</ele>
        <time>2011-09-03T10:26:17Z</time>
      </trkpt>
      <trkpt lat="59.3954035" lon="17.9694636">
        <ele>38.5901</ele>
        <time>2011-09-03T10:26:22Z</time>
      </trkpt>
      <trkpt lat="59.3953792" lon="17.9697481">
        <ele>37.6287</ele>
        <time>2011-09-03T10:26:26Z</time>
      </trkpt>
      <trkpt lat="59.3953512" lon="17.9701029">
        <ele>35.2255</ele>
        <time>2011-09-03T10:26:31Z</time>
      </trkpt>
      <trkpt lat="59.3952998" lon="17.9703522">
        <ele>33.7834</ele>
        <time>2011-09-03T10:26:35Z</time>
      </trkpt>
      <trkpt lat="59.3952482" lon="17.9704695">
        <ele>35.2255</ele>
        <time>2011-09-03T10:26:39Z</time>
      </trkpt>
      <trkpt lat="59.3951593" lon="17.9707415">
        <ele>33.3029</ele>
        <time>2011-09-03T10:26:44Z</time>
      </trkpt>
      <trkpt lat="59.3950211" lon="17.971155">
        <ele>30.4188</ele>
        <time>2011-09-03T10:26:49Z</time>
      </trkpt>
      <trkpt lat="59.3949133" lon="17.9712891">
        <ele>28.0155</ele>
        <time>2011-09-03T10:26:53Z</time>
      </trkpt>
      <trkpt lat="59.3948665" lon="17.9713314">
        <ele>26.5736</ele>
        <time>2011-09-03T10:26:55Z</time>
      </trkpt>
      <trkpt lat="59.394727" lon="17.971413">
        <ele>27.5349</ele>
        <time>2011-09-03T10:27:01Z</time>
      </trkpt>
      <trkpt lat="59.394518" lon="17.9715238">
        <ele>24.1703</ele>
        <time>2011-09-03T10:27:07Z</time>
      </trkpt>
      <trkpt lat="59.3943065" lon="17.9714793">
        <ele>21.767</ele>
        <time>2011-09-03T10:27:13Z</time>
      </trkpt>
      <trkpt lat="59.3940966" lon="17.9715661">
        <ele>17.9218</ele>
        <time>2011-09-03T10:27:19Z</time>
      </trkpt>
      <trkpt lat="59.3939221" lon="17.9715781">
        <ele>17.4412</ele>
        <time>2011-09-03T10:27:24Z</time>
      </trkpt>
      <trkpt lat="59.3938933" lon="17.971576">
        <ele>17.4412</ele>
        <time>2011-09-03T10:27:25Z</time>
      </trkpt>
      <trkpt lat="59.39379" lon="17.9713513">
        <ele>18.8831</ele>
        <time>2011-09-03T10:27:29Z</time>
      </trkpt>
      <trkpt lat="59.393607" lon="17.9708955">
        <ele>25.1317</ele>
        <time>2011-09-03T10:27:36Z</time>
      </trkpt>
      <trkpt lat="59.3935618" lon="17.9706634">
        <ele>28.9769</ele>
        <time>2011-09-03T10:27:39Z</time>
      </trkpt>
      <trkpt lat="59.39345" lon="17.9704472">
        <ele>30.8995</ele>
        <time>2011-09-03T10:27:43Z</time>
      </trkpt>
      <trkpt lat="59.3933062" lon="17.9702204">
        <ele>34.2642</ele>
        <time>2011-09-03T10:27:49Z</time>
      </trkpt>
      <trkpt lat="59.3932217" lon="17.9702525">
        <ele>29.9381</ele>
        <time>2011-09-03T10:27:53Z</time>
      </trkpt>
      <trkpt lat="59.3930864" lon="17.9702889">
        <ele>20.8057</ele>
        <time>2011-09-03T10:27:58Z</time>
      </trkpt>
      <trkpt lat="59.3929874" lon="17.9702324">
        <ele>18.8831</ele>
        <time>2011-09-03T10:28:01Z</time>
      </trkpt>
      <trkpt lat="59.3928227" lon="17.9699111">
        <ele>12.1538</ele>
        <time>2011-09-03T10:28:08Z</time>
      </trkpt>
      <trkpt lat="59.3927659" lon="17.9696987">
        <ele>7.34717</ele>
        <time>2011-09-03T10:28:12Z</time>
      </trkpt>
      <trkpt lat="59.392785" lon="17.96944">
        <ele>1.57935</ele>
        <time>2011-09-03T10:28:17Z</time>
      </trkpt>
      <trkpt lat="59.392901" lon="17.9692607">
        <ele>0.618042</ele>
        <time>2011-09-03T10:28:22Z</time>
      </trkpt>
      <trkpt lat="59.3931109" lon="17.9690357">
        <ele>1.57935</ele>
        <time>2011-09-03T10:28:30Z</time>
      </trkpt>
      <trkpt lat="59.3932202" lon="17.9689882">
        <ele>4.46326</ele>
        <time>2011-09-03T10:28:34Z</time>
      </trkpt>
      <trkpt lat="59.3933131" lon="17.9689748">
        <ele>9.2699</ele>
        <time>2011-09-03T10:28:38Z</time>
      </trkpt>
      <trkpt lat="59.3934345" lon="17.9689442">
        <ele>11.1925</ele>
        <time>2011-09-03T10:28:43Z</time>
      </trkpt>
      <trkpt lat="59.3935624" lon="17.9689512">
        <ele>13.5958</ele>
        <time>2011-09-03T10:28:48Z</time>
      </trkpt>
      <trkpt lat="59.3936823" lon="17.9689349">
        <ele>16.9604</ele>
        <time>2011-09-03T10:28:53Z</time>
      </trkpt>
      <trkpt lat="59.3938116" lon="17.9688833">
        <ele>20.325</ele>
        <time>2011-09-03T10:28:58Z</time>
      </trkpt>
      <trkpt lat="59.3939167" lon="17.9688399">
        <ele>21.767</ele>
        <time>2011-09-03T10:29:03Z</time>
      </trkpt>
      <trkpt lat="59.3940226" lon="17.9688995">
        <ele>21.767</ele>
        <time>2011-09-03T10:29:08Z</time>
      </trkpt>
      <trkpt lat="59.394039" lon="17.9689187">
        <ele>22.2476</ele>
        <time>2011-09-03T10:29:09Z</time>
      </trkpt>
      <trkpt lat="59.3941604" lon="17.9689985">
        <ele>23.209</ele>
        <time>2011-09-03T10:29:15Z</time>
      </trkpt>
      <trkpt lat="59.3942691" lon="17.9690607">
        <ele>24.651</ele>
        <time>2011-09-03T10:29:20Z</time>
      </trkpt>
      <trkpt lat="59.3943923" lon="17.9690383">
        <ele>25.1317</ele>
        <time>2011-09-03T10:29:26Z</time>
      </trkpt>
      <trkpt lat="59.3944935" lon="17.9689924">
        <ele>27.5349</ele>
        <time>2011-09-03T10:29:31Z</time>
      </trkpt>
      <trkpt lat="59.3945773" lon="17.9689742">
        <ele>31.8607</ele>
        <time>2011-09-03T10:29:36Z</time>
      </trkpt>
      <trkpt lat="59.3947572" lon="17.9689415">
        <ele>31.8607</ele>
        <time>2011-09-03T10:29:42Z</time>
      </trkpt>
      <trkpt lat="59.3949238" lon="17.9688166">
        <ele>32.3416</ele>
        <time>2011-09-03T10:29:49Z</time>
      </trkpt>
      <trkpt lat="59.3949699" lon="17.9687255">
        <ele>33.3029</ele>
        <time>2011-09-03T10:29:52Z</time>
      </trkpt>
      <trkpt lat="59.3949865" lon="17.9686676">
        <ele>33.7834</ele>
        <time>2011-09-03T10:29:54Z</time>
      </trkpt>
      <trkpt lat="59.3949353" lon="17.9684194">
        <ele>36.1868</ele>
        <time>2011-09-03T10:29:59Z</time>
      </trkpt>
      <trkpt lat="59.394844" lon="17.9682065">
        <ele>36.6675</ele>
        <time>2011-09-03T10:30:04Z</time>
      </trkpt>
      <trkpt lat="59.3948356" lon="17.9681553">
        <ele>36.1868</ele>
        <time>2011-09-03T10:30:05Z</time>
      </trkpt>
      <trkpt lat="59.3947895" lon="17.9678732">
        <ele>33.7834</ele>
        <time>2011-09-03T10:30:11Z</time>
      </trkpt>
      <trkpt lat="59.3946804" lon="17.9675749">
        <ele>35.2255</ele>
        <time>2011-09-03T10:30:17Z</time>
      </trkpt>
      <trkpt lat="59.394623" lon="17.9673603">
        <ele>36.1868</ele>
        <time>2011-09-03T10:30:21Z</time>
      </trkpt>
      <trkpt lat="59.3945479" lon="17.9670901">
        <ele>38.1094</ele>
        <time>2011-09-03T10:30:26Z</time>
      </trkpt>
      <trkpt lat="59.3945396" lon="17.9669711">
        <ele>38.5901</ele>
        <time>2011-09-03T10:30:28Z</time>
      </trkpt>
      <trkpt lat="59.394645" lon="17.9666622">
        <ele>36.6675</ele>
        <time>2011-09-03T10:30:34Z</time>
      </trkpt>
      <trkpt lat="59.394691" lon="17.9664997">
        <ele>36.1868</ele>
        <time>2011-09-03T10:30:37Z</time>
      </trkpt>
      <trkpt lat="59.3947683" lon="17.9663046">
        <ele>34.7449</ele>
        <time>2011-09-03T10:30:42Z</time>
      </trkpt>
      <trkpt lat="59.3948171" lon="17.9662038">
        <ele>34.2642</ele>
        <time>2011-09-03T10:30:45Z</time>
      </trkpt>
      <trkpt lat="59.394928" lon="17.9660541">
        <ele>35.2255</ele>
        <time>2011-09-03T10:30:50Z</time>
      </trkpt>
      <trkpt lat="59.395015" lon="17.9659303">
        <ele>36.6675</ele>
        <time>2011-09-03T10:30:55Z</time>
      </trkpt>
      <trkpt lat="59.395128" lon="17.9657858">
        <ele>37.6287</ele>
        <time>2011-09-03T10:31:00Z</time>
      </trkpt>
      <trkpt lat="59.3952506" lon="17.9656677">
        <ele>39.0707</ele>
        <time>2011-09-03T10:31:05Z</time>
      </trkpt>
      <trkpt lat="59.3953673" lon="17.9656183">
        <ele>39.0707</ele>
        <time>2011-09-03T10:31:09Z</time>
      </trkpt>
      <trkpt lat="59.3954139" lon="17.9655957">
        <ele>40.0321</ele>
        <time>2011-09-03T10:31:11Z</time>
      </trkpt>
      <trkpt lat="59.3955538" lon="17.9654991">
        <ele>40.0321</ele>
        <time>2011-09-03T10:31:17Z</time>
      </trkpt>
      <trkpt lat="59.3955939" lon="17.9654078">
        <ele>38.5901</ele>
        <time>2011-09-03T10:31:21Z</time>
      </trkpt>
      <trkpt lat="59.3956393" lon="17.9652295">
        <ele>38.5901</ele>
        <time>2011-09-03T10:31:25Z</time>
      </trkpt>
      <trkpt lat="59.3956169" lon="17.9650449">
        <ele>37.6287</ele>
        <time>2011-09-03T10:31:29Z</time>
      </trkpt>
      <trkpt lat="59.3955361" lon="17.9649471">
        <ele>37.6287</ele>
        <time>2011-09-03T10:31:33Z</time>
      </trkpt>
      <trkpt lat="59.3954926" lon="17.9649019">
        <ele>37.1481</ele>
        <time>2011-09-03T10:31:35Z</time>
      </trkpt>
      <trkpt lat="59.3953591" lon="17.9647633">
        <ele>31.3801</ele>
        <time>2011-09-03T10:31:41Z</time>
      </trkpt>
      <trkpt lat="59.3952481" lon="17.9646799">
        <ele>28.0155</ele>
        <time>2011-09-03T10:31:46Z</time>
      </trkpt>
      <trkpt lat="59.395101" lon="17.9645388">
        <ele>25.1317</ele>
        <time>2011-09-03T10:31:53Z</time>
      </trkpt>
      <trkpt lat="59.394998" lon="17.9645182">
        <ele>25.1317</ele>
        <time>2011-09-03T10:31:58Z</time>
      </trkpt>
      <trkpt lat="59.3949268" lon="17.9645955">
        <ele>25.1317</ele>
        <time>2011-09-03T10:32:02Z</time>
      </trkpt>
      <trkpt lat="59.394802" lon="17.9647893">
        <ele>26.0929</ele>
        <time>2011-09-03T10:32:08Z</time>
      </trkpt>
      <trkpt lat="59.3947115" lon="17.9649052">
        <ele>24.1703</ele>
        <time>2011-09-03T10:32:12Z</time>
      </trkpt>
      <trkpt lat="59.3946563" lon="17.9649481">
        <ele>23.209</ele>
        <time>2011-09-03T10:32:14Z</time>
      </trkpt>
      <trkpt lat="59.3944695" lon="17.964986">
        <ele>16.4797</ele>
        <time>2011-09-03T10:32:20Z</time>
      </trkpt>
      <trkpt lat="59.3942929" lon="17.9649469">
        <ele>11.1925</ele>
        <time>2011-09-03T10:32:25Z</time>
      </trkpt>
      <trkpt lat="59.394137" lon="17.9648798">
        <ele>9.75061</ele>
        <time>2011-09-03T10:32:30Z</time>
      </trkpt>
      <trkpt lat="59.3940251" lon="17.9647974">
        <ele>9.2699</ele>
        <time>2011-09-03T10:32:34Z</time>
      </trkpt>
      <trkpt lat="59.3938817" lon="17.964615">
        <ele>8.78918</ele>
        <time>2011-09-03T10:32:39Z</time>
      </trkpt>
      <trkpt lat="59.3937713" lon="17.9643913">
        <ele>10.7118</ele>
        <time>2011-09-03T10:32:44Z</time>
      </trkpt>
      <trkpt lat="59.3936972" lon="17.964194">
        <ele>13.5958</ele>
        <time>2011-09-03T10:32:48Z</time>
      </trkpt>
      <trkpt lat="59.3935909" lon="17.9639401">
        <ele>19.3638</ele>
        <time>2011-09-03T10:32:54Z</time>
      </trkpt>
      <trkpt lat="59.3935418" lon="17.9638806">
        <ele>21.2864</ele>
        <time>2011-09-03T10:32:56Z</time>
      </trkpt>
      <trkpt lat="59.3934106" lon="17.9638809">
        <ele>21.767</ele>
        <time>2011-09-03T10:33:02Z</time>
      </trkpt>
      <trkpt lat="59.3933694" lon="17.9639392">
        <ele>21.2864</ele>
        <time>2011-09-03T10:33:04Z</time>
      </trkpt>
      <trkpt lat="59.3932366" lon="17.9641704">
        <ele>18.4023</ele>
        <time>2011-09-03T10:33:11Z</time>
      </trkpt>
      <trkpt lat="59.3931591" lon="17.9643415">
        <ele>15.5184</ele>
        <time>2011-09-03T10:33:15Z</time>
      </trkpt>
      <trkpt lat="59.3930197" lon="17.964657">
        <ele>15.0377</ele>
        <time>2011-09-03T10:33:22Z</time>
      </trkpt>
      <trkpt lat="59.3928947" lon="17.9649026">
        <ele>12.6344</ele>
        <time>2011-09-03T10:33:27Z</time>
      </trkpt>
      <trkpt lat="59.3927783" lon="17.9651636">
        <ele>10.2312</ele>
        <time>2011-09-03T10:33:32Z</time>
      </trkpt>
      <trkpt lat="59.3926722" lon="17.9654744">
        <ele>8.30859</ele>
        <time>2011-09-03T10:33:38Z</time>
      </trkpt>
      <trkpt lat="59.3925773" lon="17.9657919">
        <ele>5.90527</ele>
        <time>2011-09-03T10:33:44Z</time>
      </trkpt>
      <trkpt lat="59.3925057" lon="17.9660583">
        <ele>3.02124</ele>
        <time>2011-09-03T10:33:49Z</time>
      </trkpt>
      <trkpt lat="59.3924363" lon="17.9664162">
        <ele>1.09863</ele>
        <time>2011-09-03T10:33:55Z</time>
      </trkpt>
      <trkpt lat="59.3924101" lon="17.9667181">
        <ele>0</ele>
        <time>2011-09-03T10:34:00Z</time>
      </trkpt>
      <trkpt lat="59.392415" lon="17.9670264">
        <ele>0</ele>
        <time>2011-09-03T10:34:05Z</time>
      </trkpt>
      <trkpt lat="59.3924281" lon="17.9673638">
        <ele>0</ele>
        <time>2011-09-03T10:34:11Z</time>
      </trkpt>
      <trkpt lat="59.3924473" lon="17.9675942">
        <ele>0</ele>
        <time>2011-09-03T10:34:15Z</time>
      </trkpt>
      <trkpt lat="59.3924405" lon="17.9679059">
        <ele>0</ele>
        <time>2011-09-03T10:34:20Z</time>
      </trkpt>
      <trkpt lat="59.3924334" lon="17.9682636">
        <ele>0</ele>
        <time>2011-09-03T10:34:26Z</time>
      </trkpt>
      <trkpt lat="59.3923961" lon="17.9685805">
        <ele>0</ele>
        <time>2011-09-03T10:34:31Z</time>
      </trkpt>
      <trkpt lat="59.3923869" lon="17.9689824">
        <ele>3.50195</ele>
        <time>2011-09-03T10:34:38Z</time>
      </trkpt>
      <trkpt lat="59.3923514" lon="17.969263">
        <ele>2.54065</ele>
        <time>2011-09-03T10:34:43Z</time>
      </trkpt>
      <trkpt lat="59.39231" lon="17.9695464">
        <ele>2.54065</ele>
        <time>2011-09-03T10:34:48Z</time>
      </trkpt>
      <trkpt lat="59.3922856" lon="17.9698173">
        <ele>3.98267</ele>
        <time>2011-09-03T10:34:53Z</time>
      </trkpt>
      <trkpt lat="59.3922495" lon="17.969982">
        <ele>4.46326</ele>
        <time>2011-09-03T10:34:56Z</time>
      </trkpt>
      <trkpt lat="59.3921217" lon="17.9700467">
        <ele>4.46326</ele>
        <time>2011-09-03T10:35:01Z</time>
      </trkpt>
      <trkpt lat="59.3919863" lon="17.9700417">
        <ele>5.42456</ele>
        <time>2011-09-03T10:35:06Z</time>
      </trkpt>
      <trkpt lat="59.3919028" lon="17.9700464">
        <ele>6.86646</ele>
        <time>2011-09-03T10:35:09Z</time>
      </trkpt>
      <trkpt lat="59.3918406" lon="17.9700708">
        <ele>7.34717</ele>
        <time>2011-09-03T10:35:11Z</time>
      </trkpt>
      <trkpt lat="59.3917163" lon="17.9701298">
        <ele>10.7118</ele>
        <time>2011-09-03T10:35:16Z</time>
      </trkpt>
      <trkpt lat="59.3916485" lon="17.9701674">
        <ele>11.6732</ele>
        <time>2011-09-03T10:35:19Z</time>
      </trkpt>
      <trkpt lat="59.3916004" lon="17.9701594">
        <ele>11.1925</ele>
        <time>2011-09-03T10:35:21Z</time>
      </trkpt>
      <trkpt lat="59.3915174" lon="17.9701879">
        <ele>14.0764</ele>
        <time>2011-09-03T10:35:25Z</time>
      </trkpt>
      <trkpt lat="59.391476" lon="17.9702018">
        <ele>15.0377</ele>
        <time>2011-09-03T10:35:27Z</time>
      </trkpt>
      <trkpt lat="59.3913853" lon="17.9702475">
        <ele>17.4412</ele>
        <time>2011-09-03T10:35:31Z</time>
      </trkpt>
      <trkpt lat="59.3913009" lon="17.9702288">
        <ele>18.4023</ele>
        <time>2011-09-03T10:35:35Z</time>
      </trkpt>
      <trkpt lat="59.3911723" lon="17.9703007">
        <ele>19.3638</ele>
        <time>2011-09-03T10:35:41Z</time>
      </trkpt>
      <trkpt lat="59.3911667" lon="17.9702987">
        <ele>20.325</ele>
        <time>2011-09-03T10:35:42Z</time>
      </trkpt>
      <trkpt lat="59.3910769" lon="17.9703634">
        <ele>23.6896</ele>
        <time>2011-09-03T10:35:48Z</time>
      </trkpt>
      <trkpt lat="59.3909759" lon="17.970439">
        <ele>26.5736</ele>
        <time>2011-09-03T10:35:54Z</time>
      </trkpt>
      <trkpt lat="59.390888" lon="17.970554">
        <ele>26.5736</ele>
        <time>2011-09-03T10:36:00Z</time>
      </trkpt>
      <trkpt lat="59.3908595" lon="17.9705987">
        <ele>28.0155</ele>
        <time>2011-09-03T10:36:03Z</time>
      </trkpt>
      <trkpt lat="59.390789" lon="17.9707376">
        <ele>32.3416</ele>
        <time>2011-09-03T10:36:09Z</time>
      </trkpt>
      <trkpt lat="59.3907268" lon="17.9708021">
        <ele>33.7834</ele>
        <time>2011-09-03T10:36:13Z</time>
      </trkpt>
      <trkpt lat="59.390705" lon="17.9708105">
        <ele>33.7834</ele>
        <time>2011-09-03T10:36:15Z</time>
      </trkpt>
      <trkpt lat="59.3906719" lon="17.9708293">
        <ele>36.6675</ele>
        <time>2011-09-03T10:36:21Z</time>
      </trkpt>
      <trkpt lat="59.3906492" lon="17.9708657">
        <ele>35.7061</ele>
        <time>2011-09-03T10:36:23Z</time>
      </trkpt>
      <trkpt lat="59.3905881" lon="17.9709825">
        <ele>37.6287</ele>
        <time>2011-09-03T10:36:29Z</time>
      </trkpt>
      <trkpt lat="59.3905695" lon="17.9710627">
        <ele>38.1094</ele>
        <time>2011-09-03T10:36:33Z</time>
      </trkpt>
      <trkpt lat="59.390568" lon="17.9710913">
        <ele>38.5901</ele>
        <time>2011-09-03T10:36:34Z</time>
      </trkpt>
      <trkpt lat="59.3905405" lon="17.9713846">
        <ele>39.0707</ele>
        <time>2011-09-03T10:36:41Z</time>
      </trkpt>
      <trkpt lat="59.3904929" lon="17.9714502">
        <ele>39.0707</ele>
        <time>2011-09-03T10:36:44Z</time>
      </trkpt>
      <trkpt lat="59.3904591" lon="17.9714713">
        <ele>37.1481</ele>
        <time>2011-09-03T10:36:46Z</time>
      </trkpt>
      <trkpt lat="59.3904208" lon="17.9714851">
        <ele>36.1868</ele>
        <time>2011-09-03T10:36:50Z</time>
      </trkpt>
      <trkpt lat="59.3903732" lon="17.9714832">
        <ele>36.1868</ele>
        <time>2011-09-03T10:37:01Z</time>
      </trkpt>
      <trkpt lat="59.3903595" lon="17.9714847">
        <ele>36.1868</ele>
        <time>2011-09-03T10:37:02Z</time>
      </trkpt>
      <trkpt lat="59.3903432" lon="17.9714957">
        <ele>36.6675</ele>
        <time>2011-09-03T10:37:03Z</time>
      </trkpt>
      <trkpt lat="59.3901938" lon="17.9714457">
        <ele>36.1868</ele>
        <time>2011-09-03T10:37:08Z</time>
      </trkpt>
      <trkpt lat="59.3901144" lon="17.9714291">
        <ele>37.1481</ele>
        <time>2011-09-03T10:37:11Z</time>
      </trkpt>
      <trkpt lat="59.3899732" lon="17.9714637">
        <ele>37.6287</ele>
        <time>2011-09-03T10:37:16Z</time>
      </trkpt>
      <trkpt lat="59.3898627" lon="17.9714352">
        <ele>37.6287</ele>
        <time>2011-09-03T10:37:22Z</time>
      </trkpt>
      <trkpt lat="59.3898459" lon="17.9714446">
        <ele>37.1481</ele>
        <time>2011-09-03T10:37:23Z</time>
      </trkpt>
      <trkpt lat="59.3897353" lon="17.9715305">
        <ele>38.1094</ele>
        <time>2011-09-03T10:37:29Z</time>
      </trkpt>
      <trkpt lat="59.3896599" lon="17.9716434">
        <ele>37.1481</ele>
        <time>2011-09-03T10:37:32Z</time>
      </trkpt>
      <trkpt lat="59.3895405" lon="17.9716679">
        <ele>36.6675</ele>
        <time>2011-09-03T10:37:37Z</time>
      </trkpt>
      <trkpt lat="59.3894703" lon="17.9716585">
        <ele>35.2255</ele>
        <time>2011-09-03T10:37:40Z</time>
      </trkpt>
      <trkpt lat="59.3894323" lon="17.9716645">
        <ele>34.7449</ele>
        <time>2011-09-03T10:37:42Z</time>
      </trkpt>
      <trkpt lat="59.3893338" lon="17.9717994">
        <ele>34.7449</ele>
        <time>2011-09-03T10:37:46Z</time>
      </trkpt>
      <trkpt lat="59.3892287" lon="17.9719532">
        <ele>35.7061</ele>
        <time>2011-09-03T10:37:50Z</time>
      </trkpt>
      <trkpt lat="59.3891401" lon="17.9721409">
        <ele>36.1868</ele>
        <time>2011-09-03T10:37:56Z</time>
      </trkpt>
      <trkpt lat="59.3889736" lon="17.9723216">
        <ele>37.1481</ele>
        <time>2011-09-03T10:38:03Z</time>
      </trkpt>
      <trkpt lat="59.3888589" lon="17.9724519">
        <ele>35.7061</ele>
        <time>2011-09-03T10:38:07Z</time>
      </trkpt>
      <trkpt lat="59.3887923" lon="17.9725407">
        <ele>34.7449</ele>
        <time>2011-09-03T10:38:10Z</time>
      </trkpt>
      <trkpt lat="59.3886347" lon="17.9726817">
        <ele>34.2642</ele>
        <time>2011-09-03T10:38:15Z</time>
      </trkpt>
      <trkpt lat="59.3884559" lon="17.972707">
        <ele>32.8223</ele>
        <time>2011-09-03T10:38:20Z</time>
      </trkpt>
      <trkpt lat="59.3884262" lon="17.9727029">
        <ele>32.3416</ele>
        <time>2011-09-03T10:38:21Z</time>
      </trkpt>
      <trkpt lat="59.3882325" lon="17.9725879">
        <ele>27.5349</ele>
        <time>2011-09-03T10:38:28Z</time>
      </trkpt>
      <trkpt lat="59.3880706" lon="17.9725246">
        <ele>23.6896</ele>
        <time>2011-09-03T10:38:34Z</time>
      </trkpt>
      <trkpt lat="59.3879218" lon="17.9724027">
        <ele>23.209</ele>
        <time>2011-09-03T10:38:39Z</time>
      </trkpt>
      <trkpt lat="59.3878297" lon="17.9722459">
        <ele>23.6896</ele>
        <time>2011-09-03T10:38:43Z</time>
      </trkpt>
      <trkpt lat="59.3876878" lon="17.9720744">
        <ele>29.4575</ele>
        <time>2011-09-03T10:38:48Z</time>
      </trkpt>
      <trkpt lat="59.3875762" lon="17.971953">
        <ele>34.2642</ele>
        <time>2011-09-03T10:38:52Z</time>
      </trkpt>
      <trkpt lat="59.3874592" lon="17.9718691">
        <ele>40.5128</ele>
        <time>2011-09-03T10:38:57Z</time>
      </trkpt>
      <trkpt lat="59.3872973" lon="17.97173">
        <ele>42.4354</ele>
        <time>2011-09-03T10:39:03Z</time>
      </trkpt>
      <trkpt lat="59.3871522" lon="17.9716011">
        <ele>40.5128</ele>
        <time>2011-09-03T10:39:09Z</time>
      </trkpt>
      <trkpt lat="59.3870822" lon="17.9715077">
        <ele>40.9934</ele>
        <time>2011-09-03T10:39:12Z</time>
      </trkpt>
      <trkpt lat="59.3869257" lon="17.9713965">
        <ele>43.8773</ele>
        <time>2011-09-03T10:39:18Z</time>
      </trkpt>
      <trkpt lat="59.3868206" lon="17.9713">
        <ele>43.3966</ele>
        <time>2011-09-03T10:39:22Z</time>
      </trkpt>
      <trkpt lat="59.3866284" lon="17.971125">
        <ele>42.916</ele>
        <time>2011-09-03T10:39:30Z</time>
      </trkpt>
      <trkpt lat="59.3866047" lon="17.9711247">
        <ele>42.916</ele>
        <time>2011-09-03T10:39:31Z</time>
      </trkpt>
      <trkpt lat="59.386493" lon="17.9710616">
        <ele>43.8773</ele>
        <time>2011-09-03T10:39:35Z</time>
      </trkpt>
      <trkpt lat="59.3864162" lon="17.9710348">
        <ele>45.7999</ele>
        <time>2011-09-03T10:39:38Z</time>
      </trkpt>
      <trkpt lat="59.3863552" lon="17.9711261">
        <ele>44.358</ele>
        <time>2011-09-03T10:39:43Z</time>
      </trkpt>
      <trkpt lat="59.3863518" lon="17.9711669">
        <ele>44.8386</ele>
        <time>2011-09-03T10:39:44Z</time>
      </trkpt>
      <trkpt lat="59.3863956" lon="17.9712812">
        <ele>46.7612</ele>
        <time>2011-09-03T10:39:48Z</time>
      </trkpt>
      <trkpt lat="59.3864704" lon="17.9715414">
        <ele>48.684</ele>
        <time>2011-09-03T10:39:54Z</time>
      </trkpt>
      <trkpt lat="59.3865112" lon="17.9717517">
        <ele>49.6453</ele>
        <time>2011-09-03T10:39:59Z</time>
      </trkpt>
      <trkpt lat="59.3865267" lon="17.9718895">
        <ele>51.0872</ele>
        <time>2011-09-03T10:40:02Z</time>
      </trkpt>
      <trkpt lat="59.3865343" lon="17.9720538">
        <ele>50.126</ele>
        <time>2011-09-03T10:40:06Z</time>
      </trkpt>
      <trkpt lat="59.3865941" lon="17.9723693">
        <ele>50.6066</ele>
        <time>2011-09-03T10:40:13Z</time>
      </trkpt>
      <trkpt lat="59.3866011" lon="17.9724047">
        <ele>50.126</ele>
        <time>2011-09-03T10:40:14Z</time>
      </trkpt>
      <trkpt lat="59.3867062" lon="17.9725394">
        <ele>52.5292</ele>
        <time>2011-09-03T10:40:19Z</time>
      </trkpt>
      <trkpt lat="59.3867997" lon="17.9726997">
        <ele>52.0486</ele>
        <time>2011-09-03T10:40:24Z</time>
      </trkpt>
      <trkpt lat="59.3868974" lon="17.9728953">
        <ele>53.9712</ele>
        <time>2011-09-03T10:40:28Z</time>
      </trkpt>
      <trkpt lat="59.3869917" lon="17.973088">
        <ele>57.8165</ele>
        <time>2011-09-03T10:40:32Z</time>
      </trkpt>
      <trkpt lat="59.3870623" lon="17.973325">
        <ele>56.3745</ele>
        <time>2011-09-03T10:40:37Z</time>
      </trkpt>
      <trkpt lat="59.3871242" lon="17.9735942">
        <ele>54.4518</ele>
        <time>2011-09-03T10:40:42Z</time>
      </trkpt>
      <trkpt lat="59.3871133" lon="17.9738834">
        <ele>48.684</ele>
        <time>2011-09-03T10:40:47Z</time>
      </trkpt>
      <trkpt lat="59.3871153" lon="17.9740003">
        <ele>46.7612</ele>
        <time>2011-09-03T10:40:49Z</time>
      </trkpt>
      <trkpt lat="59.3871257" lon="17.9742769">
        <ele>48.2034</ele>
        <time>2011-09-03T10:40:54Z</time>
      </trkpt>
      <trkpt lat="59.3871189" lon="17.9743801">
        <ele>48.2034</ele>
        <time>2011-09-03T10:40:56Z</time>
      </trkpt>
      <trkpt lat="59.3871137" lon="17.9744832">
        <ele>47.7225</ele>
        <time>2011-09-03T10:40:58Z</time>
      </trkpt>
      <trkpt lat="59.3870737" lon="17.9747536">
        <ele>48.684</ele>
        <time>2011-09-03T10:41:04Z</time>
      </trkpt>
      <trkpt lat="59.3870556" lon="17.9748479">
        <ele>46.7612</ele>
        <time>2011-09-03T10:41:06Z</time>
      </trkpt>
      <trkpt lat="59.3870038" lon="17.9750919">
        <ele>44.358</ele>
        <time>2011-09-03T10:41:11Z</time>
      </trkpt>
      <trkpt lat="59.3869523" lon="17.9753762">
        <ele>39.0707</ele>
        <time>2011-09-03T10:41:16Z</time>
      </trkpt>
      <trkpt lat="59.3869822" lon="17.9756482">
        <ele>41.9547</ele>
        <time>2011-09-03T10:41:21Z</time>
      </trkpt>
      <trkpt lat="59.3870035" lon="17.9758435">
        <ele>42.4354</ele>
        <time>2011-09-03T10:41:25Z</time>
      </trkpt>
      <trkpt lat="59.3870236" lon="17.9759378">
        <ele>42.916</ele>
        <time>2011-09-03T10:41:27Z</time>
      </trkpt>
      <trkpt lat="59.3869744" lon="17.9762846">
        <ele>40.9934</ele>
        <time>2011-09-03T10:41:33Z</time>
      </trkpt>
      <trkpt lat="59.3869538" lon="17.9763901">
        <ele>42.4354</ele>
        <time>2011-09-03T10:41:35Z</time>
      </trkpt>
      <trkpt lat="59.3869423" lon="17.9764903">
        <ele>42.4354</ele>
        <time>2011-09-03T10:41:37Z</time>
      </trkpt>
      <trkpt lat="59.3869444" lon="17.976765">
        <ele>43.8773</ele>
        <time>2011-09-03T10:41:42Z</time>
      </trkpt>
      <trkpt lat="59.3868893" lon="17.9770862">
        <ele>41.9547</ele>
        <time>2011-09-03T10:41:48Z</time>
      </trkpt>
      <trkpt lat="59.3868449" lon="17.9773953">
        <ele>40.9934</ele>
        <time>2011-09-03T10:41:54Z</time>
      </trkpt>
      <trkpt lat="59.3868453" lon="17.9774369">
        <ele>42.916</ele>
        <time>2011-09-03T10:41:55Z</time>
      </trkpt>
      <trkpt lat="59.3868066" lon="17.9776435">
        <ele>43.8773</ele>
        <time>2011-09-03T10:41:59Z</time>
      </trkpt>
      <trkpt lat="59.3867624" lon="17.9779203">
        <ele>44.358</ele>
        <time>2011-09-03T10:42:04Z</time>
      </trkpt>
      <trkpt lat="59.3867057" lon="17.9781283">
        <ele>45.3192</ele>
        <time>2011-09-03T10:42:09Z</time>
      </trkpt>
      <trkpt lat="59.3867047" lon="17.9782637">
        <ele>45.7999</ele>
        <time>2011-09-03T10:42:12Z</time>
      </trkpt>
      <trkpt lat="59.3866754" lon="17.9785273">
        <ele>42.4354</ele>
        <time>2011-09-03T10:42:18Z</time>
      </trkpt>
      <trkpt lat="59.3866951" lon="17.9786843">
        <ele>42.4354</ele>
        <time>2011-09-03T10:42:21Z</time>
      </trkpt>
      <trkpt lat="59.3867116" lon="17.9787722">
        <ele>42.916</ele>
        <time>2011-09-03T10:42:23Z</time>
      </trkpt>
      <trkpt lat="59.3867986" lon="17.9789325">
        <ele>40.0321</ele>
        <time>2011-09-03T10:42:29Z</time>
      </trkpt>
      <trkpt lat="59.3868978" lon="17.9791459">
        <ele>40.5128</ele>
        <time>2011-09-03T10:42:34Z</time>
      </trkpt>
      <trkpt lat="59.3869728" lon="17.9791814">
        <ele>40.5128</ele>
        <time>2011-09-03T10:42:37Z</time>
      </trkpt>
      <trkpt lat="59.3869978" lon="17.979213">
        <ele>41.474</ele>
        <time>2011-09-03T10:42:38Z</time>
      </trkpt>
      <trkpt lat="59.3871225" lon="17.979356">
        <ele>43.3966</ele>
        <time>2011-09-03T10:42:44Z</time>
      </trkpt>
      <trkpt lat="59.3871439" lon="17.9793841">
        <ele>42.4354</ele>
        <time>2011-09-03T10:42:45Z</time>
      </trkpt>
      <trkpt lat="59.3872454" lon="17.9795959">
        <ele>40.5128</ele>
        <time>2011-09-03T10:42:51Z</time>
      </trkpt>
      <trkpt lat="59.3873225" lon="17.9796731">
        <ele>40.5128</ele>
        <time>2011-09-03T10:42:54Z</time>
      </trkpt>
      <trkpt lat="59.3875086" lon="17.9796302">
        <ele>37.1481</ele>
        <time>2011-09-03T10:43:02Z</time>
      </trkpt>
      <trkpt lat="59.3876199" lon="17.9794904">
        <ele>37.1481</ele>
        <time>2011-09-03T10:43:07Z</time>
      </trkpt>
      <trkpt lat="59.3877329" lon="17.9793606">
        <ele>36.1868</ele>
        <time>2011-09-03T10:43:12Z</time>
      </trkpt>
      <trkpt lat="59.3878342" lon="17.979206">
        <ele>33.7834</ele>
        <time>2011-09-03T10:43:17Z</time>
      </trkpt>
      <trkpt lat="59.3879259" lon="17.9790592">
        <ele>32.3416</ele>
        <time>2011-09-03T10:43:22Z</time>
      </trkpt>
      <trkpt lat="59.3880115" lon="17.9788696">
        <ele>30.8995</ele>
        <time>2011-09-03T10:43:27Z</time>
      </trkpt>
      <trkpt lat="59.388155" lon="17.9788417">
        <ele>29.4575</ele>
        <time>2011-09-03T10:43:32Z</time>
      </trkpt>
      <trkpt lat="59.3881988" lon="17.9789413">
        <ele>30.4188</ele>
        <time>2011-09-03T10:43:34Z</time>
      </trkpt>
      <trkpt lat="59.3882099" lon="17.9791128">
        <ele>32.8223</ele>
        <time>2011-09-03T10:43:38Z</time>
      </trkpt>
      <trkpt lat="59.3883059" lon="17.979065">
        <ele>29.9381</ele>
        <time>2011-09-03T10:43:44Z</time>
      </trkpt>
      <trkpt lat="59.3883993" lon="17.9788096">
        <ele>28.4962</ele>
        <time>2011-09-03T10:43:50Z</time>
      </trkpt>
      <trkpt lat="59.3885131" lon="17.9785537">
        <ele>28.0155</ele>
        <time>2011-09-03T10:43:56Z</time>
      </trkpt>
      <trkpt lat="59.3886244" lon="17.9783665">
        <ele>26.5736</ele>
        <time>2011-09-03T10:44:01Z</time>
      </trkpt>
      <trkpt lat="59.3887356" lon="17.978164">
        <ele>25.6123</ele>
        <time>2011-09-03T10:44:06Z</time>
      </trkpt>
      <trkpt lat="59.3888376" lon="17.9779374">
        <ele>27.0543</ele>
        <time>2011-09-03T10:44:11Z</time>
      </trkpt>
      <trkpt lat="59.388904" lon="17.9777814">
        <ele>27.5349</ele>
        <time>2011-09-03T10:44:15Z</time>
      </trkpt>
      <trkpt lat="59.3890009" lon="17.9775711">
        <ele>28.0155</ele>
        <time>2011-09-03T10:44:20Z</time>
      </trkpt>
      <trkpt lat="59.3890865" lon="17.9773115">
        <ele>28.9769</ele>
        <time>2011-09-03T10:44:26Z</time>
      </trkpt>
      <trkpt lat="59.3891297" lon="17.9770618">
        <ele>32.3416</ele>
        <time>2011-09-03T10:44:31Z</time>
      </trkpt>
      <trkpt lat="59.3891616" lon="17.9768883">
        <ele>35.2255</ele>
        <time>2011-09-03T10:44:35Z</time>
      </trkpt>
      <trkpt lat="59.3892058" lon="17.9766568">
        <ele>35.7061</ele>
        <time>2011-09-03T10:44:39Z</time>
      </trkpt>
      <trkpt lat="59.3892485" lon="17.9764608">
        <ele>33.7834</ele>
        <time>2011-09-03T10:44:43Z</time>
      </trkpt>
      <trkpt lat="59.3892966" lon="17.976252">
        <ele>33.3029</ele>
        <time>2011-09-03T10:44:47Z</time>
      </trkpt>
      <trkpt lat="59.3893717" lon="17.9760165">
        <ele>30.8995</ele>
        <time>2011-09-03T10:44:52Z</time>
      </trkpt>
      <trkpt lat="59.3895209" lon="17.9757873">
        <ele>27.0543</ele>
        <time>2011-09-03T10:44:58Z</time>
      </trkpt>
      <trkpt lat="59.3896245" lon="17.9755673">
        <ele>25.6123</ele>
        <time>2011-09-03T10:45:03Z</time>
      </trkpt>
      <trkpt lat="59.3897374" lon="17.9752846">
        <ele>25.6123</ele>
        <time>2011-09-03T10:45:09Z</time>
      </trkpt>
      <trkpt lat="59.3898318" lon="17.9750424">
        <ele>26.5736</ele>
        <time>2011-09-03T10:45:14Z</time>
      </trkpt>
      <trkpt lat="59.389896" lon="17.9748562">
        <ele>28.0155</ele>
        <time>2011-09-03T10:45:18Z</time>
      </trkpt>
      <trkpt lat="59.3900013" lon="17.9746047">
        <ele>30.4188</ele>
        <time>2011-09-03T10:45:23Z</time>
      </trkpt>
      <trkpt lat="59.3900785" lon="17.9744143">
        <ele>33.7834</ele>
        <time>2011-09-03T10:45:28Z</time>
      </trkpt>
      <trkpt lat="59.3901913" lon="17.9742892">
        <ele>36.6675</ele>
        <time>2011-09-03T10:45:32Z</time>
      </trkpt>
      <trkpt lat="59.3903073" lon="17.9741569">
        <ele>37.1481</ele>
        <time>2011-09-03T10:45:36Z</time>
      </trkpt>
      <trkpt lat="59.3904746" lon="17.974047">
        <ele>38.5901</ele>
        <time>2011-09-03T10:45:41Z</time>
      </trkpt>
      <trkpt lat="59.3906327" lon="17.9740066">
        <ele>36.6675</ele>
        <time>2011-09-03T10:45:46Z</time>
      </trkpt>
      <trkpt lat="59.390806" lon="17.9740444">
        <ele>32.3416</ele>
        <time>2011-09-03T10:45:52Z</time>
      </trkpt>
      <trkpt lat="59.390971" lon="17.9741839">
        <ele>27.5349</ele>
        <time>2011-09-03T10:45:57Z</time>
      </trkpt>
      <trkpt lat="59.3910989" lon="17.974305">
        <ele>23.209</ele>
        <time>2011-09-03T10:46:02Z</time>
      </trkpt>
      <trkpt lat="59.3912651" lon="17.9745153">
        <ele>17.9218</ele>
        <time>2011-09-03T10:46:08Z</time>
      </trkpt>
      <trkpt lat="59.3913873" lon="17.9746734">
        <ele>13.1151</ele>
        <time>2011-09-03T10:46:12Z</time>
      </trkpt>
      <trkpt lat="59.3915726" lon="17.974983">
        <ele>7.82788</ele>
        <time>2011-09-03T10:46:18Z</time>
      </trkpt>
      <trkpt lat="59.3916877" lon="17.9752395">
        <ele>3.98267</ele>
        <time>2011-09-03T10:46:23Z</time>
      </trkpt>
      <trkpt lat="59.3917681" lon="17.9755462">
        <ele>3.02124</ele>
        <time>2011-09-03T10:46:28Z</time>
      </trkpt>
      <trkpt lat="59.3918375" lon="17.9758894">
        <ele>0.618042</ele>
        <time>2011-09-03T10:46:34Z</time>
      </trkpt>
      <trkpt lat="59.3919159" lon="17.9762225">
        <ele>0</ele>
        <time>2011-09-03T10:46:40Z</time>
      </trkpt>
      <trkpt lat="59.3919969" lon="17.9765345">
        <ele>0</ele>
        <time>2011-09-03T10:46:46Z</time>
      </trkpt>
      <trkpt lat="59.392009" lon="17.9765899">
        <ele>0</ele>
        <time>2011-09-03T10:46:47Z</time>
      </trkpt>
      <trkpt lat="59.392077" lon="17.9769119">
        <ele>0</ele>
        <time>2011-09-03T10:46:53Z</time>
      </trkpt>
      <trkpt lat="59.3921187" lon="17.9772947">
        <ele>0</ele>
        <time>2011-09-03T10:47:00Z</time>
      </trkpt>
      <trkpt lat="59.3921488" lon="17.9775895">
        <ele>0</ele>
        <time>2011-09-03T10:47:05Z</time>
      </trkpt>
      <trkpt lat="59.392187" lon="17.9778611">
        <ele>0</ele>
        <time>2011-09-03T10:47:10Z</time>
      </trkpt>
      <trkpt lat="59.3921889" lon="17.9781365">
        <ele>0</ele>
        <time>2011-09-03T10:47:15Z</time>
      </trkpt>
      <trkpt lat="59.3922244" lon="17.9784245">
        <ele>0</ele>
        <time>2011-09-03T10:47:20Z</time>
      </trkpt>
      <trkpt lat="59.3922443" lon="17.9787064">
        <ele>0</ele>
        <time>2011-09-03T10:47:25Z</time>
      </trkpt>
      <trkpt lat="59.3922551" lon="17.9790686">
        <ele>0</ele>
        <time>2011-09-03T10:47:31Z</time>
      </trkpt>
      <trkpt lat="59.3921818" lon="17.9793257">
        <ele>0</ele>
        <time>2011-09-03T10:47:36Z</time>
      </trkpt>
      <trkpt lat="59.392087" lon="17.9794385">
        <ele>0.137451</ele>
        <time>2011-09-03T10:47:41Z</time>
      </trkpt>
      <trkpt lat="59.3920151" lon="17.9795301">
        <ele>6.86646</ele>
        <time>2011-09-03T10:47:46Z</time>
      </trkpt>
      <trkpt lat="59.3920177" lon="17.9795706">
        <ele>11.6732</ele>
        <time>2011-09-03T10:47:48Z</time>
      </trkpt>
      <trkpt lat="59.3920373" lon="17.9797788">
        <ele>21.767</ele>
        <time>2011-09-03T10:47:54Z</time>
      </trkpt>
      <trkpt lat="59.3920373" lon="17.9799051">
        <ele>24.651</ele>
        <time>2011-09-03T10:47:57Z</time>
      </trkpt>
      <trkpt lat="59.3920344" lon="17.9800404">
        <ele>26.5736</ele>
        <time>2011-09-03T10:48:01Z</time>
      </trkpt>
      <trkpt lat="59.391949" lon="17.9802031">
        <ele>29.4575</ele>
        <time>2011-09-03T10:48:07Z</time>
      </trkpt>
      <trkpt lat="59.3919085" lon="17.9802384">
        <ele>28.0155</ele>
        <time>2011-09-03T10:48:09Z</time>
      </trkpt>
      <trkpt lat="59.3918658" lon="17.9802992">
        <ele>28.4962</ele>
        <time>2011-09-03T10:48:12Z</time>
      </trkpt>
      <trkpt lat="59.3918119" lon="17.9804331">
        <ele>32.3416</ele>
        <time>2011-09-03T10:48:17Z</time>
      </trkpt>
      <trkpt lat="59.3917835" lon="17.9805855">
        <ele>34.2642</ele>
        <time>2011-09-03T10:48:21Z</time>
      </trkpt>
      <trkpt lat="59.3917587" lon="17.9808407">
        <ele>33.3029</ele>
        <time>2011-09-03T10:48:27Z</time>
      </trkpt>
      <trkpt lat="59.3917951" lon="17.9810113">
        <ele>29.4575</ele>
        <time>2011-09-03T10:48:32Z</time>
      </trkpt>
      <trkpt lat="59.3918112" lon="17.9812347">
        <ele>25.6123</ele>
        <time>2011-09-03T10:48:36Z</time>
      </trkpt>
      <trkpt lat="59.3918312" lon="17.9814602">
        <ele>22.2476</ele>
        <time>2011-09-03T10:48:40Z</time>
      </trkpt>
      <trkpt lat="59.3917933" lon="17.9816716">
        <ele>19.3638</ele>
        <time>2011-09-03T10:48:45Z</time>
      </trkpt>
      <trkpt lat="59.3917914" lon="17.9817458">
        <ele>19.8444</ele>
        <time>2011-09-03T10:48:47Z</time>
      </trkpt>
      <trkpt lat="59.3917376" lon="17.9820639">
        <ele>18.8831</ele>
        <time>2011-09-03T10:48:52Z</time>
      </trkpt>
      <trkpt lat="59.3916992" lon="17.9823549">
        <ele>17.4412</ele>
        <time>2011-09-03T10:48:56Z</time>
      </trkpt>
      <trkpt lat="59.3916536" lon="17.9826589">
        <ele>17.4412</ele>
        <time>2011-09-03T10:49:00Z</time>
      </trkpt>
      <trkpt lat="59.3915961" lon="17.9828594">
        <ele>14.0764</ele>
        <time>2011-09-03T10:49:04Z</time>
      </trkpt>
      <trkpt lat="59.3915602" lon="17.9830418">
        <ele>17.4412</ele>
        <time>2011-09-03T10:49:08Z</time>
      </trkpt>
      <trkpt lat="59.3915169" lon="17.9833172">
        <ele>23.6896</ele>
        <time>2011-09-03T10:49:14Z</time>
      </trkpt>
      <trkpt lat="59.3914397" lon="17.9835285">
        <ele>25.6123</ele>
        <time>2011-09-03T10:49:19Z</time>
      </trkpt>
      <trkpt lat="59.3914288" lon="17.9835576">
        <ele>26.0929</ele>
        <time>2011-09-03T10:49:20Z</time>
      </trkpt>
      <trkpt lat="59.3913791" lon="17.9836986">
        <ele>26.5736</ele>
        <time>2011-09-03T10:49:24Z</time>
      </trkpt>
      <trkpt lat="59.3913036" lon="17.9839742">
        <ele>29.9381</ele>
        <time>2011-09-03T10:49:30Z</time>
      </trkpt>
      <trkpt lat="59.3912237" lon="17.9841343">
        <ele>31.8607</ele>
        <time>2011-09-03T10:49:34Z</time>
      </trkpt>
      <trkpt lat="59.3911331" lon="17.9843817">
        <ele>31.3801</ele>
        <time>2011-09-03T10:49:40Z</time>
      </trkpt>
      <trkpt lat="59.3910688" lon="17.9845102">
        <ele>29.9381</ele>
        <time>2011-09-03T10:49:43Z</time>
      </trkpt>
      <trkpt lat="59.3909506" lon="17.9847072">
        <ele>30.4188</ele>
        <time>2011-09-03T10:49:48Z</time>
      </trkpt>
      <trkpt lat="59.3908933" lon="17.9848392">
        <ele>29.9381</ele>
        <time>2011-09-03T10:49:51Z</time>
      </trkpt>
      <trkpt lat="59.3907816" lon="17.9850428">
        <ele>31.8607</ele>
        <time>2011-09-03T10:49:57Z</time>
      </trkpt>
      <trkpt lat="59.3906657" lon="17.9852158">
        <ele>31.3801</ele>
        <time>2011-09-03T10:50:02Z</time>
      </trkpt>
      <trkpt lat="59.3905683" lon="17.9853838">
        <ele>34.2642</ele>
        <time>2011-09-03T10:50:08Z</time>
      </trkpt>
      <trkpt lat="59.3904824" lon="17.9854707">
        <ele>39.5513</ele>
        <time>2011-09-03T10:50:13Z</time>
      </trkpt>
      <trkpt lat="59.3903615" lon="17.9854613">
        <ele>40.9934</ele>
        <time>2011-09-03T10:50:18Z</time>
      </trkpt>
      <trkpt lat="59.3902079" lon="17.9855224">
        <ele>38.1094</ele>
        <time>2011-09-03T10:50:24Z</time>
      </trkpt>
      <trkpt lat="59.3901297" lon="17.9855677">
        <ele>36.6675</ele>
        <time>2011-09-03T10:50:27Z</time>
      </trkpt>
      <trkpt lat="59.3900131" lon="17.9856125">
        <ele>30.8995</ele>
        <time>2011-09-03T10:50:32Z</time>
      </trkpt>
      <trkpt lat="59.3898798" lon="17.9855349">
        <ele>26.5736</ele>
        <time>2011-09-03T10:50:38Z</time>
      </trkpt>
      <trkpt lat="59.3898328" lon="17.9854208">
        <ele>26.5736</ele>
        <time>2011-09-03T10:50:42Z</time>
      </trkpt>
      <trkpt lat="59.3898093" lon="17.9852361">
        <ele>27.0543</ele>
        <time>2011-09-03T10:50:47Z</time>
      </trkpt>
      <trkpt lat="59.3897998" lon="17.9851604">
        <ele>28.9769</ele>
        <time>2011-09-03T10:50:49Z</time>
      </trkpt>
      <trkpt lat="59.3897121" lon="17.9849816">
        <ele>34.2642</ele>
        <time>2011-09-03T10:50:56Z</time>
      </trkpt>
      <trkpt lat="59.3896405" lon="17.9848513">
        <ele>37.1481</ele>
        <time>2011-09-03T10:51:01Z</time>
      </trkpt>
      <trkpt lat="59.38961" lon="17.9846987">
        <ele>37.6287</ele>
        <time>2011-09-03T10:51:05Z</time>
      </trkpt>
      <trkpt lat="59.3895981" lon="17.9844887">
        <ele>40.5128</ele>
        <time>2011-09-03T10:51:10Z</time>
      </trkpt>
      <trkpt lat="59.3895654" lon="17.9843223">
        <ele>42.916</ele>
        <time>2011-09-03T10:51:14Z</time>
      </trkpt>
      <trkpt lat="59.3895478" lon="17.9841369">
        <ele>44.8386</ele>
        <time>2011-09-03T10:51:18Z</time>
      </trkpt>
      <trkpt lat="59.3895004" lon="17.9840213">
        <ele>45.3192</ele>
        <time>2011-09-03T10:51:23Z</time>
      </trkpt>
      <trkpt lat="59.3894603" lon="17.9838403">
        <ele>47.2418</ele>
        <time>2011-09-03T10:51:29Z</time>
      </trkpt>
      <trkpt lat="59.3894102" lon="17.9836772">
        <ele>47.2418</ele>
        <time>2011-09-03T10:51:34Z</time>
      </trkpt>
      <trkpt lat="59.3893604" lon="17.9835443">
        <ele>46.7612</ele>
        <time>2011-09-03T10:51:38Z</time>
      </trkpt>
      <trkpt lat="59.3894252" lon="17.9832225">
        <ele>47.7225</ele>
        <time>2011-09-03T10:51:45Z</time>
      </trkpt>
      <trkpt lat="59.3894842" lon="17.9830574">
        <ele>46.7612</ele>
        <time>2011-09-03T10:51:50Z</time>
      </trkpt>
      <trkpt lat="59.3895281" lon="17.9828562">
        <ele>47.2418</ele>
        <time>2011-09-03T10:51:56Z</time>
      </trkpt>
      <trkpt lat="59.3895881" lon="17.9826349">
        <ele>45.7999</ele>
        <time>2011-09-03T10:52:01Z</time>
      </trkpt>
      <trkpt lat="59.3895526" lon="17.9825002">
        <ele>46.2806</ele>
        <time>2011-09-03T10:52:05Z</time>
      </trkpt>
      <trkpt lat="59.3894806" lon="17.9822315">
        <ele>50.126</ele>
        <time>2011-09-03T10:52:12Z</time>
      </trkpt>
      <trkpt lat="59.3894648" lon="17.982084">
        <ele>52.5292</ele>
        <time>2011-09-03T10:52:16Z</time>
      </trkpt>
      <trkpt lat="59.3894588" lon="17.9817971">
        <ele>52.5292</ele>
        <time>2011-09-03T10:52:21Z</time>
      </trkpt>
      <trkpt lat="59.3894279" lon="17.9815302">
        <ele>52.0486</ele>
        <time>2011-09-03T10:52:27Z</time>
      </trkpt>
      <trkpt lat="59.3894247" lon="17.9814177">
        <ele>52.5292</ele>
        <time>2011-09-03T10:52:29Z</time>
      </trkpt>
      <trkpt lat="59.3894547" lon="17.9810919">
        <ele>51.0872</ele>
        <time>2011-09-03T10:52:34Z</time>
      </trkpt>
      <trkpt lat="59.3894501" lon="17.9809097">
        <ele>48.684</ele>
        <time>2011-09-03T10:52:37Z</time>
      </trkpt>
      <trkpt lat="59.3894221" lon="17.9806606">
        <ele>45.7999</ele>
        <time>2011-09-03T10:52:42Z</time>
      </trkpt>
      <trkpt lat="59.389354" lon="17.9804342">
        <ele>44.8386</ele>
        <time>2011-09-03T10:52:48Z</time>
      </trkpt>
      <trkpt lat="59.3893444" lon="17.9804004">
        <ele>44.358</ele>
        <time>2011-09-03T10:52:49Z</time>
      </trkpt>
      <trkpt lat="59.3892434" lon="17.9802258">
        <ele>45.3192</ele>
        <time>2011-09-03T10:52:55Z</time>
      </trkpt>
      <trkpt lat="59.3891732" lon="17.9802304">
        <ele>43.8773</ele>
        <time>2011-09-03T10:53:00Z</time>
      </trkpt>
      <trkpt lat="59.389137" lon="17.9802347">
        <ele>43.8773</ele>
        <time>2011-09-03T10:53:02Z</time>
      </trkpt>
      <trkpt lat="59.3891175" lon="17.9802378">
        <ele>43.8773</ele>
        <time>2011-09-03T10:53:03Z</time>
      </trkpt>
      <trkpt lat="59.3890054" lon="17.9802453">
        <ele>41.474</ele>
        <time>2011-09-03T10:53:09Z</time>
      </trkpt>
      <trkpt lat="59.3889274" lon="17.9803015">
        <ele>39.5513</ele>
        <time>2011-09-03T10:53:12Z</time>
      </trkpt>
      <trkpt lat="59.3888166" lon="17.9804128">
        <ele>36.6675</ele>
        <time>2011-09-03T10:53:17Z</time>
      </trkpt>
      <trkpt lat="59.3886843" lon="17.9805553">
        <ele>38.5901</ele>
        <time>2011-09-03T10:53:23Z</time>
      </trkpt>
      <trkpt lat="59.3886519" lon="17.9806087">
        <ele>38.5901</ele>
        <time>2011-09-03T10:53:25Z</time>
      </trkpt>
      <trkpt lat="59.3885531" lon="17.9808243">
        <ele>40.9934</ele>
        <time>2011-09-03T10:53:31Z</time>
      </trkpt>
      <trkpt lat="59.3884856" lon="17.9809801">
        <ele>42.916</ele>
        <time>2011-09-03T10:53:35Z</time>
      </trkpt>
      <trkpt lat="59.38842" lon="17.9812137">
        <ele>44.358</ele>
        <time>2011-09-03T10:53:40Z</time>
      </trkpt>
      <trkpt lat="59.3883384" lon="17.9814447">
        <ele>42.916</ele>
        <time>2011-09-03T10:53:45Z</time>
      </trkpt>
      <trkpt lat="59.3882975" lon="17.9816041">
        <ele>43.8773</ele>
        <time>2011-09-03T10:53:48Z</time>
      </trkpt>
      <trkpt lat="59.3882015" lon="17.9819374">
        <ele>42.4354</ele>
        <time>2011-09-03T10:53:54Z</time>
      </trkpt>
      <trkpt lat="59.3881598" lon="17.9821399">
        <ele>42.916</ele>
        <time>2011-09-03T10:53:58Z</time>
      </trkpt>
      <trkpt lat="59.388117" lon="17.9823733">
        <ele>45.3192</ele>
        <time>2011-09-03T10:54:03Z</time>
      </trkpt>
      <trkpt lat="59.38807" lon="17.9826123">
        <ele>46.7612</ele>
        <time>2011-09-03T10:54:08Z</time>
      </trkpt>
      <trkpt lat="59.3880057" lon="17.9829157">
        <ele>48.684</ele>
        <time>2011-09-03T10:54:14Z</time>
      </trkpt>
      <trkpt lat="59.3879504" lon="17.9831707">
        <ele>46.7612</ele>
        <time>2011-09-03T10:54:19Z</time>
      </trkpt>
      <trkpt lat="59.3879401" lon="17.9834131">
        <ele>42.916</ele>
        <time>2011-09-03T10:54:24Z</time>
      </trkpt>
      <trkpt lat="59.3879942" lon="17.9836917">
        <ele>38.5901</ele>
        <time>2011-09-03T10:54:30Z</time>
      </trkpt>
      <trkpt lat="59.3880665" lon="17.9838862">
        <ele>38.1094</ele>
        <time>2011-09-03T10:54:35Z</time>
      </trkpt>
      <trkpt lat="59.3881079" lon="17.9840648">
        <ele>36.6675</ele>
        <time>2011-09-03T10:54:39Z</time>
      </trkpt>
      <trkpt lat="59.3881707" lon="17.984227">
        <ele>34.7449</ele>
        <time>2011-09-03T10:54:43Z</time>
      </trkpt>
      <trkpt lat="59.3882553" lon="17.9844044">
        <ele>34.7449</ele>
        <time>2011-09-03T10:54:48Z</time>
      </trkpt>
      <trkpt lat="59.3883456" lon="17.9844937">
        <ele>37.6287</ele>
        <time>2011-09-03T10:54:52Z</time>
      </trkpt>
      <trkpt lat="59.3884881" lon="17.9846256">
        <ele>41.474</ele>
        <time>2011-09-03T10:54:58Z</time>
      </trkpt>
      <trkpt lat="59.3886215" lon="17.9846932">
        <ele>44.358</ele>
        <time>2011-09-03T10:55:03Z</time>
      </trkpt>
      <trkpt lat="59.3887322" lon="17.9847061">
        <ele>42.4354</ele>
        <time>2011-09-03T10:55:08Z</time>
      </trkpt>
      <trkpt lat="59.3888557" lon="17.9846725">
        <ele>41.9547</ele>
        <time>2011-09-03T10:55:13Z</time>
      </trkpt>
      <trkpt lat="59.3889931" lon="17.9846783">
        <ele>40.0321</ele>
        <time>2011-09-03T10:55:18Z</time>
      </trkpt>
      <trkpt lat="59.389122" lon="17.9846445">
        <ele>39.5513</ele>
        <time>2011-09-03T10:55:23Z</time>
      </trkpt>
      <trkpt lat="59.3893089" lon="17.9846876">
        <ele>39.5513</ele>
        <time>2011-09-03T10:55:29Z</time>
      </trkpt>
      <trkpt lat="59.3894573" lon="17.9847807">
        <ele>41.9547</ele>
        <time>2011-09-03T10:55:34Z</time>
      </trkpt>
      <trkpt lat="59.3895821" lon="17.9849677">
        <ele>43.3966</ele>
        <time>2011-09-03T10:55:39Z</time>
      </trkpt>
      <trkpt lat="59.3897078" lon="17.9851875">
        <ele>42.4354</ele>
        <time>2011-09-03T10:55:44Z</time>
      </trkpt>
      <trkpt lat="59.3898071" lon="17.985537">
        <ele>40.0321</ele>
        <time>2011-09-03T10:55:50Z</time>
      </trkpt>
      <trkpt lat="59.3898489" lon="17.985838">
        <ele>40.9934</ele>
        <time>2011-09-03T10:55:55Z</time>
      </trkpt>
      <trkpt lat="59.3898739" lon="17.9861176">
        <ele>40.0321</ele>
        <time>2011-09-03T10:56:00Z</time>
      </trkpt>
      <trkpt lat="59.3898757" lon="17.9865027">
        <ele>38.5901</ele>
        <time>2011-09-03T10:56:06Z</time>
      </trkpt>
      <trkpt lat="59.3898551" lon="17.9868868">
        <ele>32.8223</ele>
        <time>2011-09-03T10:56:12Z</time>
      </trkpt>
      <trkpt lat="59.3898205" lon="17.9871901">
        <ele>27.5349</ele>
        <time>2011-09-03T10:56:17Z</time>
      </trkpt>
      <trkpt lat="59.3898043" lon="17.9873623">
        <ele>24.651</ele>
        <time>2011-09-03T10:56:20Z</time>
      </trkpt>
      <trkpt lat="59.3898892" lon="17.9876249">
        <ele>18.4023</ele>
        <time>2011-09-03T10:56:26Z</time>
      </trkpt>
      <trkpt lat="59.3900498" lon="17.9876463">
        <ele>20.325</ele>
        <time>2011-09-03T10:56:31Z</time>
      </trkpt>
      <trkpt lat="59.3901643" lon="17.9874686">
        <ele>21.2864</ele>
        <time>2011-09-03T10:56:36Z</time>
      </trkpt>
      <trkpt lat="59.3902492" lon="17.9872008">
        <ele>24.1703</ele>
        <time>2011-09-03T10:56:41Z</time>
      </trkpt>
      <trkpt lat="59.3903519" lon="17.9869715">
        <ele>25.6123</ele>
        <time>2011-09-03T10:56:46Z</time>
      </trkpt>
      <trkpt lat="59.3904637" lon="17.9869047">
        <ele>24.651</ele>
        <time>2011-09-03T10:56:50Z</time>
      </trkpt>
      <trkpt lat="59.3906094" lon="17.9867994">
        <ele>24.651</ele>
        <time>2011-09-03T10:56:55Z</time>
      </trkpt>
      <trkpt lat="59.3907793" lon="17.9866373">
        <ele>23.209</ele>
        <time>2011-09-03T10:57:01Z</time>
      </trkpt>
      <trkpt lat="59.3909593" lon="17.9865394">
        <ele>23.209</ele>
        <time>2011-09-03T10:57:06Z</time>
      </trkpt>
      <trkpt lat="59.3911064" lon="17.9865044">
        <ele>22.7283</ele>
        <time>2011-09-03T10:57:10Z</time>
      </trkpt>
      <trkpt lat="59.3912537" lon="17.9865391">
        <ele>18.4023</ele>
        <time>2011-09-03T10:57:15Z</time>
      </trkpt>
      <trkpt lat="59.3913968" lon="17.9866326">
        <ele>14.0764</ele>
        <time>2011-09-03T10:57:20Z</time>
      </trkpt>
      <trkpt lat="59.3915961" lon="17.9867326">
        <ele>9.75061</ele>
        <time>2011-09-03T10:57:27Z</time>
      </trkpt>
      <trkpt lat="59.3917163" lon="17.9868035">
        <ele>7.82788</ele>
        <time>2011-09-03T10:57:31Z</time>
      </trkpt>
      <trkpt lat="59.3919265" lon="17.9869183">
        <ele>6.86646</ele>
        <time>2011-09-03T10:57:38Z</time>
      </trkpt>
      <trkpt lat="59.3920651" lon="17.9869584">
        <ele>6.86646</ele>
        <time>2011-09-03T10:57:43Z</time>
      </trkpt>
      <trkpt lat="59.3921938" lon="17.9868999">
        <ele>7.34717</ele>
        <time>2011-09-03T10:57:48Z</time>
      </trkpt>
      <trkpt lat="59.3923307" lon="17.986867">
        <ele>7.82788</ele>
        <time>2011-09-03T10:57:54Z</time>
      </trkpt>
      <trkpt lat="59.3924481" lon="17.9868463">
        <ele>8.78918</ele>
        <time>2011-09-03T10:57:59Z</time>
      </trkpt>
      <trkpt lat="59.39257" lon="17.9868367">
        <ele>10.2312</ele>
        <time>2011-09-03T10:58:04Z</time>
      </trkpt>
      <trkpt lat="59.3926913" lon="17.9868476">
        <ele>13.1151</ele>
        <time>2011-09-03T10:58:09Z</time>
      </trkpt>
      <trkpt lat="59.392786" lon="17.9868521">
        <ele>15.0377</ele>
        <time>2011-09-03T10:58:13Z</time>
      </trkpt>
      <trkpt lat="59.3929246" lon="17.9868065">
        <ele>15.999</ele>
        <time>2011-09-03T10:58:19Z</time>
      </trkpt>
      <trkpt lat="59.3929974" lon="17.9867652">
        <ele>15.999</ele>
        <time>2011-09-03T10:58:22Z</time>
      </trkpt>
      <trkpt lat="59.3930804" lon="17.9866946">
        <ele>16.9604</ele>
        <time>2011-09-03T10:58:25Z</time>
      </trkpt>
      <trkpt lat="59.3932009" lon="17.9865417">
        <ele>17.4412</ele>
        <time>2011-09-03T10:58:30Z</time>
      </trkpt>
      <trkpt lat="59.3932701" lon="17.9863235">
        <ele>17.9218</ele>
        <time>2011-09-03T10:58:35Z</time>
      </trkpt>
      <trkpt lat="59.3932942" lon="17.9860999">
        <ele>18.8831</ele>
        <time>2011-09-03T10:58:40Z</time>
      </trkpt>
      <trkpt lat="59.3932994" lon="17.9857238">
        <ele>21.2864</ele>
        <time>2011-09-03T10:58:47Z</time>
      </trkpt>
      <trkpt lat="59.3933283" lon="17.985442">
        <ele>22.2476</ele>
        <time>2011-09-03T10:58:53Z</time>
      </trkpt>
      <trkpt lat="59.3934376" lon="17.9852039">
        <ele>24.1703</ele>
        <time>2011-09-03T10:58:59Z</time>
      </trkpt>
      <trkpt lat="59.393482" lon="17.9851354">
        <ele>24.651</ele>
        <time>2011-09-03T10:59:01Z</time>
      </trkpt>
      <trkpt lat="59.3935442" lon="17.9850262">
        <ele>27.0543</ele>
        <time>2011-09-03T10:59:05Z</time>
      </trkpt>
      <trkpt lat="59.3935734" lon="17.9847679">
        <ele>29.9381</ele>
        <time>2011-09-03T10:59:11Z</time>
      </trkpt>
      <trkpt lat="59.3936133" lon="17.9845148">
        <ele>31.3801</ele>
        <time>2011-09-03T10:59:16Z</time>
      </trkpt>
      <trkpt lat="59.3936973" lon="17.984292">
        <ele>31.8607</ele>
        <time>2011-09-03T10:59:21Z</time>
      </trkpt>
      <trkpt lat="59.3937531" lon="17.9842031">
        <ele>31.8607</ele>
        <time>2011-09-03T10:59:24Z</time>
      </trkpt>
      <trkpt lat="59.3938866" lon="17.9839136">
        <ele>28.9769</ele>
        <time>2011-09-03T10:59:31Z</time>
      </trkpt>
      <trkpt lat="59.3939023" lon="17.9838649">
        <ele>28.9769</ele>
        <time>2011-09-03T10:59:32Z</time>
      </trkpt>
      <trkpt lat="59.3939531" lon="17.9836635">
        <ele>29.9381</ele>
        <time>2011-09-03T10:59:37Z</time>
      </trkpt>
      <trkpt lat="59.3939539" lon="17.9836353">
        <ele>29.9381</ele>
        <time>2011-09-03T10:59:38Z</time>
      </trkpt>
      <trkpt lat="59.3939619" lon="17.983409">
        <ele>29.4575</ele>
        <time>2011-09-03T10:59:43Z</time>
      </trkpt>
      <trkpt lat="59.3939832" lon="17.9831406">
        <ele>28.9769</ele>
        <time>2011-09-03T10:59:48Z</time>
      </trkpt>
      <trkpt lat="59.3940027" lon="17.9827908">
        <ele>27.5349</ele>
        <time>2011-09-03T10:59:54Z</time>
      </trkpt>
      <trkpt lat="59.3940236" lon="17.9823659">
        <ele>27.0543</ele>
        <time>2011-09-03T11:00:00Z</time>
      </trkpt>
      <trkpt lat="59.3939925" lon="17.9820207">
        <ele>26.0929</ele>
        <time>2011-09-03T11:00:05Z</time>
      </trkpt>
      <trkpt lat="59.3939573" lon="17.9818151">
        <ele>27.0543</ele>
        <time>2011-09-03T11:00:09Z</time>
      </trkpt>
      <trkpt lat="59.3938649" lon="17.9815659">
        <ele>28.4962</ele>
        <time>2011-09-03T11:00:14Z</time>
      </trkpt>
      <trkpt lat="59.3937506" lon="17.9813582">
        <ele>27.0543</ele>
        <time>2011-09-03T11:00:19Z</time>
      </trkpt>
      <trkpt lat="59.3936374" lon="17.9812655">
        <ele>25.1317</ele>
        <time>2011-09-03T11:00:23Z</time>
      </trkpt>
      <trkpt lat="59.3935141" lon="17.9811038">
        <ele>21.2864</ele>
        <time>2011-09-03T11:00:28Z</time>
      </trkpt>
      <trkpt lat="59.3934325" lon="17.9809236">
        <ele>18.8831</ele>
        <time>2011-09-03T11:00:32Z</time>
      </trkpt>
      <trkpt lat="59.393348" lon="17.9807175">
        <ele>16.4797</ele>
        <time>2011-09-03T11:00:36Z</time>
      </trkpt>
      <trkpt lat="59.3932922" lon="17.9804874">
        <ele>14.0764</ele>
        <time>2011-09-03T11:00:40Z</time>
      </trkpt>
      <trkpt lat="59.3932598" lon="17.9802521">
        <ele>14.0764</ele>
        <time>2011-09-03T11:00:44Z</time>
      </trkpt>
      <trkpt lat="59.3932709" lon="17.9799438">
        <ele>14.0764</ele>
        <time>2011-09-03T11:00:49Z</time>
      </trkpt>
      <trkpt lat="59.3933159" lon="17.9796639">
        <ele>11.1925</ele>
        <time>2011-09-03T11:00:54Z</time>
      </trkpt>
      <trkpt lat="59.3933466" lon="17.9794186">
        <ele>9.75061</ele>
        <time>2011-09-03T11:00:58Z</time>
      </trkpt>
      <trkpt lat="59.3933862" lon="17.9791234">
        <ele>8.30859</ele>
        <time>2011-09-03T11:01:03Z</time>
      </trkpt>
      <trkpt lat="59.3934485" lon="17.9788912">
        <ele>6.86646</ele>
        <time>2011-09-03T11:01:07Z</time>
      </trkpt>
      <trkpt lat="59.3935185" lon="17.9786071">
        <ele>5.90527</ele>
        <time>2011-09-03T11:01:12Z</time>
      </trkpt>
      <trkpt lat="59.3935719" lon="17.9784092">
        <ele>5.42456</ele>
        <time>2011-09-03T11:01:16Z</time>
      </trkpt>
      <trkpt lat="59.3936376" lon="17.9780404">
        <ele>7.34717</ele>
        <time>2011-09-03T11:01:22Z</time>
      </trkpt>
      <trkpt lat="59.3936949" lon="17.977771">
        <ele>6.86646</ele>
        <time>2011-09-03T11:01:27Z</time>
      </trkpt>
      <trkpt lat="59.3937467" lon="17.9774215">
        <ele>6.86646</ele>
        <time>2011-09-03T11:01:33Z</time>
      </trkpt>
      <trkpt lat="59.3937933" lon="17.9771458">
        <ele>6.38586</ele>
        <time>2011-09-03T11:01:38Z</time>
      </trkpt>
      <trkpt lat="59.3939544" lon="17.9769986">
        <ele>5.90527</ele>
        <time>2011-09-03T11:01:44Z</time>
      </trkpt>
      <trkpt lat="59.394012" lon="17.9769655">
        <ele>5.42456</ele>
        <time>2011-09-03T11:01:46Z</time>
      </trkpt>
      <trkpt lat="59.3941514" lon="17.9769795">
        <ele>6.86646</ele>
        <time>2011-09-03T11:01:52Z</time>
      </trkpt>
      <trkpt lat="59.3942254" lon="17.9769454">
        <ele>9.2699</ele>
        <time>2011-09-03T11:01:55Z</time>
      </trkpt>
      <trkpt lat="59.394316" lon="17.9769575">
        <ele>11.1925</ele>
        <time>2011-09-03T11:01:59Z</time>
      </trkpt>
      <trkpt lat="59.3944244" lon="17.9769573">
        <ele>15.999</ele>
        <time>2011-09-03T11:02:04Z</time>
      </trkpt>
      <trkpt lat="59.394501" lon="17.9769903">
        <ele>17.4412</ele>
        <time>2011-09-03T11:02:08Z</time>
      </trkpt>
      <trkpt lat="59.394581" lon="17.9770497">
        <ele>16.9604</ele>
        <time>2011-09-03T11:02:12Z</time>
      </trkpt>
      <trkpt lat="59.3946341" lon="17.9771633">
        <ele>15.0377</ele>
        <time>2011-09-03T11:02:16Z</time>
      </trkpt>
      <trkpt lat="59.3946876" lon="17.9772534">
        <ele>13.5958</ele>
        <time>2011-09-03T11:02:20Z</time>
      </trkpt>
      <trkpt lat="59.3947892" lon="17.977369">
        <ele>11.6732</ele>
        <time>2011-09-03T11:02:26Z</time>
      </trkpt>
      <trkpt lat="59.394873" lon="17.9775264">
        <ele>9.2699</ele>
        <time>2011-09-03T11:02:31Z</time>
      </trkpt>
      <trkpt lat="59.3949052" lon="17.9775941">
        <ele>7.82788</ele>
        <time>2011-09-03T11:02:33Z</time>
      </trkpt>
      <trkpt lat="59.3949518" lon="17.9778083">
        <ele>6.86646</ele>
        <time>2011-09-03T11:02:39Z</time>
      </trkpt>
      <trkpt lat="59.3949725" lon="17.9780735">
        <ele>8.30859</ele>
        <time>2011-09-03T11:02:45Z</time>
      </trkpt>
      <trkpt lat="59.3950249" lon="17.9782963">
        <ele>11.1925</ele>
        <time>2011-09-03T11:02:51Z</time>
      </trkpt>
      <trkpt lat="59.3950834" lon="17.9784501">
        <ele>9.75061</ele>
        <time>2011-09-03T11:02:56Z</time>
      </trkpt>
      <trkpt lat="59.3950985" lon="17.9785288">
        <ele>9.2699</ele>
        <time>2011-09-03T11:02:58Z</time>
      </trkpt>
      <trkpt lat="59.3951772" lon="17.978761">
        <ele>9.2699</ele>
        <time>2011-09-03T11:03:05Z</time>
      </trkpt>
      <trkpt lat="59.3952252" lon="17.9789948">
        <ele>8.78918</ele>
        <time>2011-09-03T11:03:12Z</time>
      </trkpt>
      <trkpt lat="59.3952282" lon="17.979181">
        <ele>8.30859</ele>
        <time>2011-09-03T11:03:16Z</time>
      </trkpt>
      <trkpt lat="59.3952263" lon="17.9793613">
        <ele>12.6344</ele>
        <time>2011-09-03T11:03:21Z</time>
      </trkpt>
      <trkpt lat="59.3952989" lon="17.9794987">
        <ele>18.4023</ele>
        <time>2011-09-03T11:03:26Z</time>
      </trkpt>
      <trkpt lat="59.3953541" lon="17.9795793">
        <ele>19.3638</ele>
        <time>2011-09-03T11:03:30Z</time>
      </trkpt>
      <trkpt lat="59.395417" lon="17.9794907">
        <ele>25.1317</ele>
        <time>2011-09-03T11:03:34Z</time>
      </trkpt>
      <trkpt lat="59.3955558" lon="17.9794187">
        <ele>28.4962</ele>
        <time>2011-09-03T11:03:42Z</time>
      </trkpt>
      <trkpt lat="59.3956667" lon="17.9793046">
        <ele>31.8607</ele>
        <time>2011-09-03T11:03:47Z</time>
      </trkpt>
      <trkpt lat="59.395778" lon="17.9791945">
        <ele>35.2255</ele>
        <time>2011-09-03T11:03:52Z</time>
      </trkpt>
      <trkpt lat="59.3958754" lon="17.9790908">
        <ele>37.1481</ele>
        <time>2011-09-03T11:03:57Z</time>
      </trkpt>
      <trkpt lat="59.3959987" lon="17.9789345">
        <ele>40.9934</ele>
        <time>2011-09-03T11:04:02Z</time>
      </trkpt>
      <trkpt lat="59.3960918" lon="17.9788514">
        <ele>42.4354</ele>
        <time>2011-09-03T11:04:06Z</time>
      </trkpt>
      <trkpt lat="59.3961619" lon="17.9787754">
        <ele>42.4354</ele>
        <time>2011-09-03T11:04:09Z</time>
      </trkpt>
      <trkpt lat="59.3962615" lon="17.9786785">
        <ele>40.5128</ele>
        <time>2011-09-03T11:04:13Z</time>
      </trkpt>
      <trkpt lat="59.3963332" lon="17.9785496">
        <ele>40.0321</ele>
        <time>2011-09-03T11:04:17Z</time>
      </trkpt>
      <trkpt lat="59.3963503" lon="17.9784609">
        <ele>40.0321</ele>
        <time>2011-09-03T11:04:19Z</time>
      </trkpt>
      <trkpt lat="59.396453" lon="17.9782912">
        <ele>41.9547</ele>
        <time>2011-09-03T11:04:23Z</time>
      </trkpt>
      <trkpt lat="59.3966082" lon="17.9781129">
        <ele>41.474</ele>
        <time>2011-09-03T11:04:29Z</time>
      </trkpt>
      <trkpt lat="59.3967377" lon="17.9779492">
        <ele>41.474</ele>
        <time>2011-09-03T11:04:34Z</time>
      </trkpt>
      <trkpt lat="59.3968114" lon="17.9777414">
        <ele>41.474</ele>
        <time>2011-09-03T11:04:38Z</time>
      </trkpt>
      <trkpt lat="59.3968939" lon="17.9775297">
        <ele>40.5128</ele>
        <time>2011-09-03T11:04:43Z</time>
      </trkpt>
      <trkpt lat="59.3970504" lon="17.9772732">
        <ele>41.9547</ele>
        <time>2011-09-03T11:04:50Z</time>
      </trkpt>
      <trkpt lat="59.3971425" lon="17.9770557">
        <ele>42.4354</ele>
        <time>2011-09-03T11:04:55Z</time>
      </trkpt>
      <trkpt lat="59.3972253" lon="17.976862">
        <ele>41.474</ele>
        <time>2011-09-03T11:05:00Z</time>
      </trkpt>
      <trkpt lat="59.3972601" lon="17.976779">
        <ele>40.0321</ele>
        <time>2011-09-03T11:05:03Z</time>
      </trkpt>
      <trkpt lat="59.3972559" lon="17.9765696">
        <ele>36.6675</ele>
        <time>2011-09-03T11:05:08Z</time>
      </trkpt>
      <trkpt lat="59.397215" lon="17.976319">
        <ele>32.3416</ele>
        <time>2011-09-03T11:05:14Z</time>
      </trkpt>
      <trkpt lat="59.3971584" lon="17.9761117">
        <ele>29.4575</ele>
        <time>2011-09-03T11:05:20Z</time>
      </trkpt>
      <trkpt lat="59.3970699" lon="17.9760748">
        <ele>28.4962</ele>
        <time>2011-09-03T11:05:24Z</time>
      </trkpt>
      <trkpt lat="59.396942" lon="17.9760437">
        <ele>24.651</ele>
        <time>2011-09-03T11:05:29Z</time>
      </trkpt>
      <trkpt lat="59.396782" lon="17.9760067">
        <ele>21.767</ele>
        <time>2011-09-03T11:05:35Z</time>
      </trkpt>
      <trkpt lat="59.3966721" lon="17.9760169">
        <ele>20.8057</ele>
        <time>2011-09-03T11:05:39Z</time>
      </trkpt>
      <trkpt lat="59.3965111" lon="17.9759796">
        <ele>22.2476</ele>
        <time>2011-09-03T11:05:45Z</time>
      </trkpt>
      <trkpt lat="59.3963851" lon="17.975912">
        <ele>23.209</ele>
        <time>2011-09-03T11:05:49Z</time>
      </trkpt>
      <trkpt lat="59.3962503" lon="17.9758668">
        <ele>24.1703</ele>
        <time>2011-09-03T11:05:53Z</time>
      </trkpt>
      <trkpt lat="59.3960904" lon="17.9758015">
        <ele>22.7283</ele>
        <time>2011-09-03T11:05:58Z</time>
      </trkpt>
      <trkpt lat="59.3959893" lon="17.9757497">
        <ele>22.2476</ele>
        <time>2011-09-03T11:06:01Z</time>
      </trkpt>
      <trkpt lat="59.3958561" lon="17.9756348">
        <ele>21.767</ele>
        <time>2011-09-03T11:06:05Z</time>
      </trkpt>
      <trkpt lat="59.3957328" lon="17.9754507">
        <ele>21.767</ele>
        <time>2011-09-03T11:06:10Z</time>
      </trkpt>
      <trkpt lat="59.395596" lon="17.9752886">
        <ele>20.325</ele>
        <time>2011-09-03T11:06:15Z</time>
      </trkpt>
      <trkpt lat="59.3954547" lon="17.9751306">
        <ele>19.8444</ele>
        <time>2011-09-03T11:06:20Z</time>
      </trkpt>
      <trkpt lat="59.3952919" lon="17.9749546">
        <ele>17.9218</ele>
        <time>2011-09-03T11:06:26Z</time>
      </trkpt>
      <trkpt lat="59.3951518" lon="17.9747332">
        <ele>15.999</ele>
        <time>2011-09-03T11:06:32Z</time>
      </trkpt>
      <trkpt lat="59.3951761" lon="17.9745454">
        <ele>15.999</ele>
        <time>2011-09-03T11:06:35Z</time>
      </trkpt>
      <trkpt lat="59.3952202" lon="17.9741351">
        <ele>15.5184</ele>
        <time>2011-09-03T11:06:42Z</time>
      </trkpt>
      <trkpt lat="59.3952508" lon="17.9738324">
        <ele>14.0764</ele>
        <time>2011-09-03T11:06:47Z</time>
      </trkpt>
      <trkpt lat="59.3952694" lon="17.9736129">
        <ele>13.5958</ele>
        <time>2011-09-03T11:06:51Z</time>
      </trkpt>
      <trkpt lat="59.3952938" lon="17.9733223">
        <ele>12.1538</ele>
        <time>2011-09-03T11:06:56Z</time>
      </trkpt>
      <trkpt lat="59.3953092" lon="17.973088">
        <ele>11.6732</ele>
        <time>2011-09-03T11:07:00Z</time>
      </trkpt>
      <trkpt lat="59.3953111" lon="17.9727971">
        <ele>11.1925</ele>
        <time>2011-09-03T11:07:05Z</time>
      </trkpt>
      <trkpt lat="59.3952957" lon="17.972582">
        <ele>10.2312</ele>
        <time>2011-09-03T11:07:10Z</time>
      </trkpt>
      <trkpt lat="59.3952201" lon="17.9724292">
        <ele>10.7118</ele>
        <time>2011-09-03T11:07:15Z</time>
      </trkpt>
      <trkpt lat="59.3951491" lon="17.972248">
        <ele>12.1538</ele>
        <time>2011-09-03T11:07:19Z</time>
      </trkpt>
      <trkpt lat="59.3951417" lon="17.9722014">
        <ele>12.1538</ele>
        <time>2011-09-03T11:07:20Z</time>
      </trkpt>
      <trkpt lat="59.395092" lon="17.9719329">
        <ele>16.4797</ele>
        <time>2011-09-03T11:07:26Z</time>
      </trkpt>
      <trkpt lat="59.3950631" lon="17.9716756">
        <ele>20.325</ele>
        <time>2011-09-03T11:07:31Z</time>
      </trkpt>
      <trkpt lat="59.3950792" lon="17.9714626">
        <ele>21.767</ele>
        <time>2011-09-03T11:07:35Z</time>
      </trkpt>
      <trkpt lat="59.3950984" lon="17.9713527">
        <ele>23.209</ele>
        <time>2011-09-03T11:07:37Z</time>
      </trkpt>
      <trkpt lat="59.3951149" lon="17.9711348">
        <ele>26.5736</ele>
        <time>2011-09-03T11:07:41Z</time>
      </trkpt>
      <trkpt lat="59.3951704" lon="17.9708925">
        <ele>31.3801</ele>
        <time>2011-09-03T11:07:46Z</time>
      </trkpt>
      <trkpt lat="59.3952443" lon="17.970707">
        <ele>34.7449</ele>
        <time>2011-09-03T11:07:51Z</time>
      </trkpt>
      <trkpt lat="59.3952923" lon="17.9704685">
        <ele>34.2642</ele>
        <time>2011-09-03T11:07:58Z</time>
      </trkpt>
      <trkpt lat="59.3953415" lon="17.9702494">
        <ele>33.7834</ele>
        <time>2011-09-03T11:08:03Z</time>
      </trkpt>
      <trkpt lat="59.3954009" lon="17.9700795">
        <ele>35.2255</ele>
        <time>2011-09-03T11:08:07Z</time>
      </trkpt>
      <trkpt lat="59.3955147" lon="17.9698982">
        <ele>35.2255</ele>
        <time>2011-09-03T11:08:12Z</time>
      </trkpt>
      <trkpt lat="59.3956134" lon="17.9697028">
        <ele>36.6675</ele>
        <time>2011-09-03T11:08:18Z</time>
      </trkpt>
      <trkpt lat="59.3956948" lon="17.9695676">
        <ele>36.1868</ele>
        <time>2011-09-03T11:08:22Z</time>
      </trkpt>
      <trkpt lat="59.3957105" lon="17.9695242">
        <ele>36.6675</ele>
        <time>2011-09-03T11:08:23Z</time>
      </trkpt>
      <trkpt lat="59.3957172" lon="17.9693015">
        <ele>37.1481</ele>
        <time>2011-09-03T11:08:28Z</time>
      </trkpt>
      <trkpt lat="59.3957174" lon="17.9692099">
        <ele>37.1481</ele>
        <time>2011-09-03T11:08:30Z</time>
      </trkpt>
      <trkpt lat="59.3957604" lon="17.9689375">
        <ele>38.1094</ele>
        <time>2011-09-03T11:08:35Z</time>
      </trkpt>
      <trkpt lat="59.3958386" lon="17.9687469">
        <ele>38.5901</ele>
        <time>2011-09-03T11:08:40Z</time>
      </trkpt>
      <trkpt lat="59.3959132" lon="17.9685453">
        <ele>40.5128</ele>
        <time>2011-09-03T11:08:45Z</time>
      </trkpt>
      <trkpt lat="59.3959956" lon="17.9683623">
        <ele>40.5128</ele>
        <time>2011-09-03T11:08:50Z</time>
      </trkpt>
      <trkpt lat="59.3960286" lon="17.9681815">
        <ele>40.9934</ele>
        <time>2011-09-03T11:08:54Z</time>
      </trkpt>
      <trkpt lat="59.3960485" lon="17.9680152">
        <ele>41.474</ele>
        <time>2011-09-03T11:08:57Z</time>
      </trkpt>
      <trkpt lat="59.396138" lon="17.9677287">
        <ele>44.8386</ele>
        <time>2011-09-03T11:09:03Z</time>
      </trkpt>
      <trkpt lat="59.3962174" lon="17.967521">
        <ele>48.684</ele>
        <time>2011-09-03T11:09:08Z</time>
      </trkpt>
      <trkpt lat="59.396277" lon="17.9672935">
        <ele>51.5679</ele>
        <time>2011-09-03T11:09:13Z</time>
      </trkpt>
      <trkpt lat="59.3963023" lon="17.9671678">
        <ele>52.5292</ele>
        <time>2011-09-03T11:09:16Z</time>
      </trkpt>
      <trkpt lat="59.396428" lon="17.9670602">
        <ele>51.5679</ele>
        <time>2011-09-03T11:09:21Z</time>
      </trkpt>
      <trkpt lat="59.3964979" lon="17.9669305">
        <ele>51.0872</ele>
        <time>2011-09-03T11:09:25Z</time>
      </trkpt>
      <trkpt lat="59.3965358" lon="17.9667591">
        <ele>51.5679</ele>
        <time>2011-09-03T11:09:29Z</time>
      </trkpt>
      <trkpt lat="59.3966322" lon="17.9664326">
        <ele>53.0098</ele>
        <time>2011-09-03T11:09:36Z</time>
      </trkpt>
      <trkpt lat="59.3966818" lon="17.9663778">
        <ele>53.0098</ele>
        <time>2011-09-03T11:09:38Z</time>
      </trkpt>
      <trkpt lat="59.3967499" lon="17.9663726">
        <ele>51.5679</ele>
        <time>2011-09-03T11:09:40Z</time>
      </trkpt>
      <trkpt lat="59.3969028" lon="17.9663875">
        <ele>47.2418</ele>
        <time>2011-09-03T11:09:46Z</time>
      </trkpt>
      <trkpt lat="59.3969302" lon="17.9663863">
        <ele>46.7612</ele>
        <time>2011-09-03T11:09:47Z</time>
      </trkpt>
      <trkpt lat="59.3970183" lon="17.9665412">
        <ele>41.9547</ele>
        <time>2011-09-03T11:09:52Z</time>
      </trkpt>
      <trkpt lat="59.3970548" lon="17.9666332">
        <ele>37.1481</ele>
        <time>2011-09-03T11:09:55Z</time>
      </trkpt>
      <trkpt lat="59.3971336" lon="17.9668414">
        <ele>32.8223</ele>
        <time>2011-09-03T11:10:00Z</time>
      </trkpt>
      <trkpt lat="59.3972584" lon="17.9671901">
        <ele>26.5736</ele>
        <time>2011-09-03T11:10:06Z</time>
      </trkpt>
      <trkpt lat="59.3973031" lon="17.9673915">
        <ele>20.8057</ele>
        <time>2011-09-03T11:10:10Z</time>
      </trkpt>
      <trkpt lat="59.3973878" lon="17.9676609">
        <ele>17.4412</ele>
        <time>2011-09-03T11:10:16Z</time>
      </trkpt>
      <trkpt lat="59.3974661" lon="17.9679656">
        <ele>14.557</ele>
        <time>2011-09-03T11:10:22Z</time>
      </trkpt>
      <trkpt lat="59.3975329" lon="17.9682224">
        <ele>9.75061</ele>
        <time>2011-09-03T11:10:27Z</time>
      </trkpt>
      <trkpt lat="59.3975988" lon="17.9685559">
        <ele>7.82788</ele>
        <time>2011-09-03T11:10:33Z</time>
      </trkpt>
      <trkpt lat="59.3976403" lon="17.9689337">
        <ele>8.30859</ele>
        <time>2011-09-03T11:10:39Z</time>
      </trkpt>
      <trkpt lat="59.3976698" lon="17.968998">
        <ele>8.78918</ele>
        <time>2011-09-03T11:10:41Z</time>
      </trkpt>
      <trkpt lat="59.3977507" lon="17.9689853">
        <ele>9.75061</ele>
        <time>2011-09-03T11:10:45Z</time>
      </trkpt>
      <trkpt lat="59.3979379" lon="17.9689563">
        <ele>15.999</ele>
        <time>2011-09-03T11:10:52Z</time>
      </trkpt>
      <trkpt lat="59.3980961" lon="17.9688294">
        <ele>21.767</ele>
        <time>2011-09-03T11:10:58Z</time>
      </trkpt>
      <trkpt lat="59.3982303" lon="17.9687296">
        <ele>27.0543</ele>
        <time>2011-09-03T11:11:04Z</time>
      </trkpt>
      <trkpt lat="59.3984033" lon="17.9686903">
        <ele>32.3416</ele>
        <time>2011-09-03T11:11:11Z</time>
      </trkpt>
      <trkpt lat="59.3985383" lon="17.9687543">
        <ele>34.2642</ele>
        <time>2011-09-03T11:11:16Z</time>
      </trkpt>
      <trkpt lat="59.3986564" lon="17.968779">
        <ele>33.7834</ele>
        <time>2011-09-03T11:11:21Z</time>
      </trkpt>
      <trkpt lat="59.3987984" lon="17.9688337">
        <ele>33.7834</ele>
        <time>2011-09-03T11:11:26Z</time>
      </trkpt>
      <trkpt lat="59.3989229" lon="17.9688321">
        <ele>35.7061</ele>
        <time>2011-09-03T11:11:31Z</time>
      </trkpt>
      <trkpt lat="59.3990369" lon="17.9687053">
        <ele>39.5513</ele>
        <time>2011-09-03T11:11:36Z</time>
      </trkpt>
      <trkpt lat="59.3990735" lon="17.9686391">
        <ele>41.474</ele>
        <time>2011-09-03T11:11:38Z</time>
      </trkpt>
      <trkpt lat="59.399181" lon="17.9685042">
        <ele>44.358</ele>
        <time>2011-09-03T11:11:43Z</time>
      </trkpt>
      <trkpt lat="59.399278" lon="17.9683356">
        <ele>45.7999</ele>
        <time>2011-09-03T11:11:48Z</time>
      </trkpt>
      <trkpt lat="59.3993747" lon="17.9680657">
        <ele>45.7999</ele>
        <time>2011-09-03T11:11:54Z</time>
      </trkpt>
      <trkpt lat="59.3993704" lon="17.9677961">
        <ele>44.8386</ele>
        <time>2011-09-03T11:11:59Z</time>
      </trkpt>
      <trkpt lat="59.399383" lon="17.9675672">
        <ele>42.916</ele>
        <time>2011-09-03T11:12:04Z</time>
      </trkpt>
      <trkpt lat="59.3994548" lon="17.9673573">
        <ele>42.916</ele>
        <time>2011-09-03T11:12:08Z</time>
      </trkpt>
      <trkpt lat="59.3995558" lon="17.9672242">
        <ele>42.916</ele>
        <time>2011-09-03T11:12:12Z</time>
      </trkpt>
      <trkpt lat="59.3996313" lon="17.967112">
        <ele>40.5128</ele>
        <time>2011-09-03T11:12:16Z</time>
      </trkpt>
      <trkpt lat="59.3996222" lon="17.9669316">
        <ele>38.5901</ele>
        <time>2011-09-03T11:12:20Z</time>
      </trkpt>
      <trkpt lat="59.3995688" lon="17.9669633">
        <ele>36.1868</ele>
        <time>2011-09-03T11:12:24Z</time>
      </trkpt>
      <trkpt lat="59.3993932" lon="17.9671249">
        <ele>35.7061</ele>
        <time>2011-09-03T11:12:31Z</time>
      </trkpt>
      <trkpt lat="59.3992684" lon="17.9672455">
        <ele>35.7061</ele>
        <time>2011-09-03T11:12:36Z</time>
      </trkpt>
      <trkpt lat="59.3991043" lon="17.9673797">
        <ele>32.8223</ele>
        <time>2011-09-03T11:12:41Z</time>
      </trkpt>
      <trkpt lat="59.3989876" lon="17.9674998">
        <ele>32.3416</ele>
        <time>2011-09-03T11:12:45Z</time>
      </trkpt>
      <trkpt lat="59.3988704" lon="17.9675735">
        <ele>33.3029</ele>
        <time>2011-09-03T11:12:49Z</time>
      </trkpt>
      <trkpt lat="59.3987202" lon="17.9675736">
        <ele>30.4188</ele>
        <time>2011-09-03T11:12:53Z</time>
      </trkpt>
      <trkpt lat="59.3986714" lon="17.9674827">
        <ele>29.4575</ele>
        <time>2011-09-03T11:12:55Z</time>
      </trkpt>
      <trkpt lat="59.3985655" lon="17.9672943">
        <ele>28.4962</ele>
        <time>2011-09-03T11:12:59Z</time>
      </trkpt>
      <trkpt lat="59.3984435" lon="17.9670922">
        <ele>27.0543</ele>
        <time>2011-09-03T11:13:04Z</time>
      </trkpt>
      <trkpt lat="59.3983459" lon="17.9668506">
        <ele>26.5736</ele>
        <time>2011-09-03T11:13:09Z</time>
      </trkpt>
      <trkpt lat="59.3982755" lon="17.9666077">
        <ele>28.9769</ele>
        <time>2011-09-03T11:13:14Z</time>
      </trkpt>
      <trkpt lat="59.3981931" lon="17.9663763">
        <ele>29.9381</ele>
        <time>2011-09-03T11:13:19Z</time>
      </trkpt>
      <trkpt lat="59.3980771" lon="17.9662375">
        <ele>27.0543</ele>
        <time>2011-09-03T11:13:24Z</time>
      </trkpt>
      <trkpt lat="59.3980358" lon="17.9660179">
        <ele>29.4575</ele>
        <time>2011-09-03T11:13:28Z</time>
      </trkpt>
      <trkpt lat="59.3980298" lon="17.9659726">
        <ele>30.4188</ele>
        <time>2011-09-03T11:13:29Z</time>
      </trkpt>
      <trkpt lat="59.3979776" lon="17.9659681">
        <ele>35.2255</ele>
        <time>2011-09-03T11:13:33Z</time>
      </trkpt>
      <trkpt lat="59.3979313" lon="17.9660188">
        <ele>39.5513</ele>
        <time>2011-09-03T11:13:37Z</time>
      </trkpt>
      <trkpt lat="59.3978357" lon="17.9659988">
        <ele>42.916</ele>
        <time>2011-09-03T11:13:42Z</time>
      </trkpt>
      <trkpt lat="59.3978003" lon="17.9659645">
        <ele>43.8773</ele>
        <time>2011-09-03T11:13:44Z</time>
      </trkpt>
      <trkpt lat="59.397665" lon="17.9659053">
        <ele>42.916</ele>
        <time>2011-09-03T11:13:50Z</time>
      </trkpt>
      <trkpt lat="59.3976154" lon="17.9658511">
        <ele>43.3966</ele>
        <time>2011-09-03T11:13:53Z</time>
      </trkpt>
      <trkpt lat="59.39758" lon="17.9657407">
        <ele>44.8386</ele>
        <time>2011-09-03T11:13:57Z</time>
      </trkpt>
      <trkpt lat="59.3974964" lon="17.9656402">
        <ele>45.3192</ele>
        <time>2011-09-03T11:14:01Z</time>
      </trkpt>
      <trkpt lat="59.3974339" lon="17.9654962">
        <ele>43.8773</ele>
        <time>2011-09-03T11:14:05Z</time>
      </trkpt>
      <trkpt lat="59.3973606" lon="17.9653018">
        <ele>41.474</ele>
        <time>2011-09-03T11:14:10Z</time>
      </trkpt>
      <trkpt lat="59.3972357" lon="17.9651881">
        <ele>38.5901</ele>
        <time>2011-09-03T11:14:15Z</time>
      </trkpt>
      <trkpt lat="59.3970999" lon="17.9649886">
        <ele>38.1094</ele>
        <time>2011-09-03T11:14:21Z</time>
      </trkpt>
      <trkpt lat="59.397061" lon="17.9648938">
        <ele>38.5901</ele>
        <time>2011-09-03T11:14:23Z</time>
      </trkpt>
      <trkpt lat="59.3969963" lon="17.9646766">
        <ele>39.0707</ele>
        <time>2011-09-03T11:14:28Z</time>
      </trkpt>
      <trkpt lat="59.3969099" lon="17.9644209">
        <ele>39.5513</ele>
        <time>2011-09-03T11:14:33Z</time>
      </trkpt>
      <trkpt lat="59.3969126" lon="17.9643047">
        <ele>39.0707</ele>
        <time>2011-09-03T11:14:35Z</time>
      </trkpt>
      <trkpt lat="59.396938" lon="17.9639546">
        <ele>37.6287</ele>
        <time>2011-09-03T11:14:41Z</time>
      </trkpt>
      <trkpt lat="59.3969594" lon="17.963634">
        <ele>36.1868</ele>
        <time>2011-09-03T11:14:46Z</time>
      </trkpt>
      <trkpt lat="59.397058" lon="17.9634194">
        <ele>36.6675</ele>
        <time>2011-09-03T11:14:50Z</time>
      </trkpt>
      <trkpt lat="59.3971728" lon="17.9631007">
        <ele>39.0707</ele>
        <time>2011-09-03T11:14:56Z</time>
      </trkpt>
      <trkpt lat="59.397243" lon="17.9628207">
        <ele>39.0707</ele>
        <time>2011-09-03T11:15:01Z</time>
      </trkpt>
      <trkpt lat="59.3972583" lon="17.9627692">
        <ele>38.1094</ele>
        <time>2011-09-03T11:15:02Z</time>
      </trkpt>
      <trkpt lat="59.3973044" lon="17.9626283">
        <ele>38.1094</ele>
        <time>2011-09-03T11:15:05Z</time>
      </trkpt>
      <trkpt lat="59.3973327" lon="17.9625714">
        <ele>38.5901</ele>
        <time>2011-09-03T11:15:07Z</time>
      </trkpt>
      <trkpt lat="59.3974065" lon="17.9624491">
        <ele>38.5901</ele>
        <time>2011-09-03T11:15:11Z</time>
      </trkpt>
      <trkpt lat="59.3974331" lon="17.9623947">
        <ele>39.5513</ele>
        <time>2011-09-03T11:15:13Z</time>
      </trkpt>
      <trkpt lat="59.397502" lon="17.9623182">
        <ele>40.0321</ele>
        <time>2011-09-03T11:15:17Z</time>
      </trkpt>
      <trkpt lat="59.3975823" lon="17.9621774">
        <ele>43.3966</ele>
        <time>2011-09-03T11:15:23Z</time>
      </trkpt>
      <trkpt lat="59.3976287" lon="17.9620217">
        <ele>46.2806</ele>
        <time>2011-09-03T11:15:30Z</time>
      </trkpt>
      <trkpt lat="59.3976377" lon="17.9619905">
        <ele>46.2806</ele>
        <time>2011-09-03T11:15:31Z</time>
      </trkpt>
      <trkpt lat="59.3977164" lon="17.9618894">
        <ele>47.2418</ele>
        <time>2011-09-03T11:15:35Z</time>
      </trkpt>
      <trkpt lat="59.3978198" lon="17.9616491">
        <ele>49.1646</ele>
        <time>2011-09-03T11:15:42Z</time>
      </trkpt>
      <trkpt lat="59.3979091" lon="17.9615666">
        <ele>50.6066</ele>
        <time>2011-09-03T11:15:46Z</time>
      </trkpt>
      <trkpt lat="59.3979928" lon="17.9614286">
        <ele>50.6066</ele>
        <time>2011-09-03T11:15:51Z</time>
      </trkpt>
      <trkpt lat="59.3980775" lon="17.961329">
        <ele>52.0486</ele>
        <time>2011-09-03T11:15:55Z</time>
      </trkpt>
      <trkpt lat="59.3981024" lon="17.9613119">
        <ele>52.0486</ele>
        <time>2011-09-03T11:15:56Z</time>
      </trkpt>
      <trkpt lat="59.3981804" lon="17.9612204">
        <ele>53.0098</ele>
        <time>2011-09-03T11:15:59Z</time>
      </trkpt>
      <trkpt lat="59.3981909" lon="17.961118">
        <ele>51.5679</ele>
        <time>2011-09-03T11:16:03Z</time>
      </trkpt>
      <trkpt lat="59.3981422" lon="17.9609719">
        <ele>50.126</ele>
        <time>2011-09-03T11:16:07Z</time>
      </trkpt>
      <trkpt lat="59.3980765" lon="17.9607122">
        <ele>48.2034</ele>
        <time>2011-09-03T11:16:13Z</time>
      </trkpt>
      <trkpt lat="59.3980314" lon="17.9605472">
        <ele>46.2806</ele>
        <time>2011-09-03T11:16:17Z</time>
      </trkpt>
      <trkpt lat="59.3979712" lon="17.9602711">
        <ele>44.358</ele>
        <time>2011-09-03T11:16:23Z</time>
      </trkpt>
      <trkpt lat="59.397921" lon="17.960066">
        <ele>41.9547</ele>
        <time>2011-09-03T11:16:27Z</time>
      </trkpt>
      <trkpt lat="59.3978739" lon="17.9599136">
        <ele>40.5128</ele>
        <time>2011-09-03T11:16:30Z</time>
      </trkpt>
      <trkpt lat="59.3977859" lon="17.9596904">
        <ele>40.9934</ele>
        <time>2011-09-03T11:16:35Z</time>
      </trkpt>
      <trkpt lat="59.3977786" lon="17.959635">
        <ele>41.9547</ele>
        <time>2011-09-03T11:16:36Z</time>
      </trkpt>
      <trkpt lat="59.3976881" lon="17.9594191">
        <ele>40.9934</ele>
        <time>2011-09-03T11:16:41Z</time>
      </trkpt>
      <trkpt lat="59.397631" lon="17.9592464">
        <ele>40.9934</ele>
        <time>2011-09-03T11:16:46Z</time>
      </trkpt>
      <trkpt lat="59.3975175" lon="17.9590838">
        <ele>39.5513</ele>
        <time>2011-09-03T11:16:51Z</time>
      </trkpt>
      <trkpt lat="59.3974888" lon="17.959075">
        <ele>40.0321</ele>
        <time>2011-09-03T11:16:52Z</time>
      </trkpt>
      <trkpt lat="59.3973526" lon="17.9589589">
        <ele>39.0707</ele>
        <time>2011-09-03T11:16:57Z</time>
      </trkpt>
      <trkpt lat="59.3972412" lon="17.9588175">
        <ele>41.9547</ele>
        <time>2011-09-03T11:17:02Z</time>
      </trkpt>
      <trkpt lat="59.3971389" lon="17.9586776">
        <ele>42.4354</ele>
        <time>2011-09-03T11:17:06Z</time>
      </trkpt>
      <trkpt lat="59.3970291" lon="17.9583486">
        <ele>47.2418</ele>
        <time>2011-09-03T11:17:12Z</time>
      </trkpt>
      <trkpt lat="59.3969432" lon="17.958125">
        <ele>48.684</ele>
        <time>2011-09-03T11:17:16Z</time>
      </trkpt>
      <trkpt lat="59.3968688" lon="17.9578157">
        <ele>47.2418</ele>
        <time>2011-09-03T11:17:22Z</time>
      </trkpt>
      <trkpt lat="59.3967681" lon="17.9576505">
        <ele>46.2806</ele>
        <time>2011-09-03T11:17:27Z</time>
      </trkpt>
      <trkpt lat="59.3967403" lon="17.9576204">
        <ele>45.7999</ele>
        <time>2011-09-03T11:17:28Z</time>
      </trkpt>
      <trkpt lat="59.3966674" lon="17.957437">
        <ele>42.916</ele>
        <time>2011-09-03T11:17:33Z</time>
      </trkpt>
      <trkpt lat="59.3965896" lon="17.9573258">
        <ele>41.9547</ele>
        <time>2011-09-03T11:17:36Z</time>
      </trkpt>
      <trkpt lat="59.3964955" lon="17.957166">
        <ele>40.5128</ele>
        <time>2011-09-03T11:17:41Z</time>
      </trkpt>
      <trkpt lat="59.3964048" lon="17.9570485">
        <ele>39.0707</ele>
        <time>2011-09-03T11:17:45Z</time>
      </trkpt>
      <trkpt lat="59.3963062" lon="17.9569061">
        <ele>37.6287</ele>
        <time>2011-09-03T11:17:49Z</time>
      </trkpt>
      <trkpt lat="59.3962264" lon="17.9566239">
        <ele>37.1481</ele>
        <time>2011-09-03T11:17:53Z</time>
      </trkpt>
      <trkpt lat="59.3962261" lon="17.9563752">
        <ele>37.6287</ele>
        <time>2011-09-03T11:17:57Z</time>
      </trkpt>
      <trkpt lat="59.3963421" lon="17.9561496">
        <ele>37.6287</ele>
        <time>2011-09-03T11:18:02Z</time>
      </trkpt>
      <trkpt lat="59.3964152" lon="17.9559328">
        <ele>34.7449</ele>
        <time>2011-09-03T11:18:06Z</time>
      </trkpt>
      <trkpt lat="59.3963964" lon="17.9557572">
        <ele>30.8995</ele>
        <time>2011-09-03T11:18:10Z</time>
      </trkpt>
      <trkpt lat="59.3963411" lon="17.9556458">
        <ele>28.4962</ele>
        <time>2011-09-03T11:18:15Z</time>
      </trkpt>
      <trkpt lat="59.3962484" lon="17.9557306">
        <ele>27.5349</ele>
        <time>2011-09-03T11:18:19Z</time>
      </trkpt>
      <trkpt lat="59.396137" lon="17.9558139">
        <ele>27.5349</ele>
        <time>2011-09-03T11:18:24Z</time>
      </trkpt>
      <trkpt lat="59.3960671" lon="17.9558612">
        <ele>25.6123</ele>
        <time>2011-09-03T11:18:26Z</time>
      </trkpt>
      <trkpt lat="59.3960598" lon="17.9560302">
        <ele>25.1317</ele>
        <time>2011-09-03T11:18:30Z</time>
      </trkpt>
      <trkpt lat="59.3960816" lon="17.9561172">
        <ele>24.651</ele>
        <time>2011-09-03T11:18:32Z</time>
      </trkpt>
      <trkpt lat="59.3961433" lon="17.9563517">
        <ele>24.651</ele>
        <time>2011-09-03T11:18:38Z</time>
      </trkpt>
      <trkpt lat="59.3961454" lon="17.9563894">
        <ele>24.651</ele>
        <time>2011-09-03T11:18:39Z</time>
      </trkpt>
      <trkpt lat="59.3961031" lon="17.9565595">
        <ele>23.209</ele>
        <time>2011-09-03T11:18:43Z</time>
      </trkpt>
      <trkpt lat="59.3960047" lon="17.9566945">
        <ele>28.9769</ele>
        <time>2011-09-03T11:18:49Z</time>
      </trkpt>
      <trkpt lat="59.3959336" lon="17.9568248">
        <ele>36.1868</ele>
        <time>2011-09-03T11:18:54Z</time>
      </trkpt>
      <trkpt lat="59.3958574" lon="17.9569008">
        <ele>41.9547</ele>
        <time>2011-09-03T11:18:58Z</time>
      </trkpt>
      <trkpt lat="59.3957847" lon="17.9569497">
        <ele>43.8773</ele>
        <time>2011-09-03T11:19:01Z</time>
      </trkpt>
      <trkpt lat="59.395691" lon="17.9571211">
        <ele>46.7612</ele>
        <time>2011-09-03T11:19:07Z</time>
      </trkpt>
      <trkpt lat="59.3956028" lon="17.9571085">
        <ele>43.8773</ele>
        <time>2011-09-03T11:19:10Z</time>
      </trkpt>
      <trkpt lat="59.3955335" lon="17.9569986">
        <ele>39.0707</ele>
        <time>2011-09-03T11:19:13Z</time>
      </trkpt>
      <trkpt lat="59.3954204" lon="17.9567818">
        <ele>32.8223</ele>
        <time>2011-09-03T11:19:18Z</time>
      </trkpt>
      <trkpt lat="59.3951948" lon="17.9567828">
        <ele>28.0155</ele>
        <time>2011-09-03T11:19:25Z</time>
      </trkpt>
      <trkpt lat="59.3950778" lon="17.9567375">
        <ele>28.4962</ele>
        <time>2011-09-03T11:19:29Z</time>
      </trkpt>
      <trkpt lat="59.3950006" lon="17.9566129">
        <ele>27.0543</ele>
        <time>2011-09-03T11:19:33Z</time>
      </trkpt>
      <trkpt lat="59.3948658" lon="17.9564566">
        <ele>28.0155</ele>
        <time>2011-09-03T11:19:39Z</time>
      </trkpt>
      <trkpt lat="59.3947431" lon="17.9563906">
        <ele>25.1317</ele>
        <time>2011-09-03T11:19:44Z</time>
      </trkpt>
      <trkpt lat="59.3946318" lon="17.9563627">
        <ele>24.1703</ele>
        <time>2011-09-03T11:19:48Z</time>
      </trkpt>
      <trkpt lat="59.3944804" lon="17.9563454">
        <ele>24.1703</ele>
        <time>2011-09-03T11:19:53Z</time>
      </trkpt>
      <trkpt lat="59.3943512" lon="17.956334">
        <ele>23.6896</ele>
        <time>2011-09-03T11:19:57Z</time>
      </trkpt>
      <trkpt lat="59.3942482" lon="17.9562762">
        <ele>24.651</ele>
        <time>2011-09-03T11:20:01Z</time>
      </trkpt>
      <trkpt lat="59.3941209" lon="17.9562721">
        <ele>25.1317</ele>
        <time>2011-09-03T11:20:05Z</time>
      </trkpt>
      <trkpt lat="59.3939904" lon="17.956267">
        <ele>25.6123</ele>
        <time>2011-09-03T11:20:09Z</time>
      </trkpt>
      <trkpt lat="59.3938788" lon="17.9562478">
        <ele>26.5736</ele>
        <time>2011-09-03T11:20:13Z</time>
      </trkpt>
      <trkpt lat="59.3937392" lon="17.9562402">
        <ele>25.1317</ele>
        <time>2011-09-03T11:20:17Z</time>
      </trkpt>
      <trkpt lat="59.393583" lon="17.9562407">
        <ele>24.651</ele>
        <time>2011-09-03T11:20:22Z</time>
      </trkpt>
      <trkpt lat="59.393461" lon="17.9562519">
        <ele>27.0543</ele>
        <time>2011-09-03T11:20:27Z</time>
      </trkpt>
      <trkpt lat="59.393381" lon="17.9562661">
        <ele>33.7834</ele>
        <time>2011-09-03T11:20:31Z</time>
      </trkpt>
      <trkpt lat="59.3932494" lon="17.9563289">
        <ele>37.1481</ele>
        <time>2011-09-03T11:20:36Z</time>
      </trkpt>
      <trkpt lat="59.3931212" lon="17.9563916">
        <ele>37.6287</ele>
        <time>2011-09-03T11:20:40Z</time>
      </trkpt>
      <trkpt lat="59.3929931" lon="17.9564874">
        <ele>31.3801</ele>
        <time>2011-09-03T11:20:44Z</time>
      </trkpt>
      <trkpt lat="59.3929136" lon="17.9565197">
        <ele>28.9769</ele>
        <time>2011-09-03T11:20:48Z</time>
      </trkpt>
      <trkpt lat="59.3928839" lon="17.9565149">
        <ele>28.0155</ele>
        <time>2011-09-03T11:20:49Z</time>
      </trkpt>
      <trkpt lat="59.3926424" lon="17.9564757">
        <ele>15.0377</ele>
        <time>2011-09-03T11:20:55Z</time>
      </trkpt>
      <trkpt lat="59.3924852" lon="17.9563117">
        <ele>3.98267</ele>
        <time>2011-09-03T11:21:00Z</time>
      </trkpt>
      <trkpt lat="59.392519" lon="17.9559623">
        <ele>2.06006</ele>
        <time>2011-09-03T11:21:06Z</time>
      </trkpt>
      <trkpt lat="59.3925445" lon="17.9557326">
        <ele>0.137451</ele>
        <time>2011-09-03T11:21:10Z</time>
      </trkpt>
      <trkpt lat="59.3924924" lon="17.9554573">
        <ele>2.06006</ele>
        <time>2011-09-03T11:21:14Z</time>
      </trkpt>
      <trkpt lat="59.392427" lon="17.9551697">
        <ele>3.50195</ele>
        <time>2011-09-03T11:21:18Z</time>
      </trkpt>
      <trkpt lat="59.3924114" lon="17.9548366">
        <ele>4.94385</ele>
        <time>2011-09-03T11:21:23Z</time>
      </trkpt>
      <trkpt lat="59.392512" lon="17.9545082">
        <ele>8.78918</ele>
        <time>2011-09-03T11:21:29Z</time>
      </trkpt>
      <trkpt lat="59.3926045" lon="17.9542601">
        <ele>9.2699</ele>
        <time>2011-09-03T11:21:34Z</time>
      </trkpt>
      <trkpt lat="59.3926455" lon="17.9540507">
        <ele>10.2312</ele>
        <time>2011-09-03T11:21:38Z</time>
      </trkpt>
      <trkpt lat="59.3926962" lon="17.9538284">
        <ele>11.1925</ele>
        <time>2011-09-03T11:21:42Z</time>
      </trkpt>
      <trkpt lat="59.392746" lon="17.953581">
        <ele>14.557</ele>
        <time>2011-09-03T11:21:46Z</time>
      </trkpt>
      <trkpt lat="59.3927932" lon="17.9533107">
        <ele>14.0764</ele>
        <time>2011-09-03T11:21:51Z</time>
      </trkpt>
      <trkpt lat="59.3927967" lon="17.9532644">
        <ele>13.1151</ele>
        <time>2011-09-03T11:21:52Z</time>
      </trkpt>
      <trkpt lat="59.3928129" lon="17.9531184">
        <ele>12.1538</ele>
        <time>2011-09-03T11:21:55Z</time>
      </trkpt>
      <trkpt lat="59.3928451" lon="17.9528874">
        <ele>9.2699</ele>
        <time>2011-09-03T11:22:00Z</time>
      </trkpt>
      <trkpt lat="59.3929042" lon="17.9526917">
        <ele>8.78918</ele>
        <time>2011-09-03T11:22:04Z</time>
      </trkpt>
      <trkpt lat="59.392903" lon="17.9524766">
        <ele>7.82788</ele>
        <time>2011-09-03T11:22:08Z</time>
      </trkpt>
      <trkpt lat="59.3928946" lon="17.9524104">
        <ele>7.82788</ele>
        <time>2011-09-03T11:22:09Z</time>
      </trkpt>
      <trkpt lat="59.3928462" lon="17.9522289">
        <ele>7.34717</ele>
        <time>2011-09-03T11:22:13Z</time>
      </trkpt>
      <trkpt lat="59.3926415" lon="17.9521034">
        <ele>3.02124</ele>
        <time>2011-09-03T11:22:20Z</time>
      </trkpt>
      <trkpt lat="59.3925057" lon="17.9519221">
        <ele>3.50195</ele>
        <time>2011-09-03T11:22:26Z</time>
      </trkpt>
      <trkpt lat="59.3924529" lon="17.9518026">
        <ele>3.98267</ele>
        <time>2011-09-03T11:22:29Z</time>
      </trkpt>
      <trkpt lat="59.3924161" lon="17.9516301">
        <ele>5.42456</ele>
        <time>2011-09-03T11:22:33Z</time>
      </trkpt>
      <trkpt lat="59.3923207" lon="17.9513525">
        <ele>6.86646</ele>
        <time>2011-09-03T11:22:39Z</time>
      </trkpt>
      <trkpt lat="59.3922679" lon="17.9511498">
        <ele>7.34717</ele>
        <time>2011-09-03T11:22:43Z</time>
      </trkpt>
      <trkpt lat="59.3921753" lon="17.9509158">
        <ele>6.38586</ele>
        <time>2011-09-03T11:22:48Z</time>
      </trkpt>
      <trkpt lat="59.3920902" lon="17.9507785">
        <ele>8.30859</ele>
        <time>2011-09-03T11:22:52Z</time>
      </trkpt>
      <trkpt lat="59.3920427" lon="17.9506681">
        <ele>10.2312</ele>
        <time>2011-09-03T11:22:56Z</time>
      </trkpt>
      <trkpt lat="59.3919354" lon="17.9506138">
        <ele>14.557</ele>
        <time>2011-09-03T11:23:02Z</time>
      </trkpt>
      <trkpt lat="59.3918489" lon="17.9506823">
        <ele>15.999</ele>
        <time>2011-09-03T11:23:06Z</time>
      </trkpt>
      <trkpt lat="59.3917104" lon="17.9507484">
        <ele>21.767</ele>
        <time>2011-09-03T11:23:13Z</time>
      </trkpt>
      <trkpt lat="59.3916013" lon="17.9508085">
        <ele>23.209</ele>
        <time>2011-09-03T11:23:17Z</time>
      </trkpt>
      <trkpt lat="59.3915156" lon="17.9508189">
        <ele>27.5349</ele>
        <time>2011-09-03T11:23:21Z</time>
      </trkpt>
      <trkpt lat="59.3914667" lon="17.9508183">
        <ele>27.5349</ele>
        <time>2011-09-03T11:23:23Z</time>
      </trkpt>
      <trkpt lat="59.3913387" lon="17.9507339">
        <ele>28.0155</ele>
        <time>2011-09-03T11:23:29Z</time>
      </trkpt>
      <trkpt lat="59.3912278" lon="17.9507159">
        <ele>28.4962</ele>
        <time>2011-09-03T11:23:34Z</time>
      </trkpt>
      <trkpt lat="59.3911652" lon="17.9507312">
        <ele>30.4188</ele>
        <time>2011-09-03T11:23:38Z</time>
      </trkpt>
      <trkpt lat="59.3910687" lon="17.9507521">
        <ele>31.8607</ele>
        <time>2011-09-03T11:23:43Z</time>
      </trkpt>
      <trkpt lat="59.3910463" lon="17.9507542">
        <ele>31.8607</ele>
        <time>2011-09-03T11:23:44Z</time>
      </trkpt>
      <trkpt lat="59.3909336" lon="17.9508397">
        <ele>31.3801</ele>
        <time>2011-09-03T11:23:49Z</time>
      </trkpt>
      <trkpt lat="59.3908507" lon="17.9509231">
        <ele>36.1868</ele>
        <time>2011-09-03T11:23:53Z</time>
      </trkpt>
      <trkpt lat="59.3907062" lon="17.9510156">
        <ele>34.7449</ele>
        <time>2011-09-03T11:23:58Z</time>
      </trkpt>
      <trkpt lat="59.3905943" lon="17.9510235">
        <ele>34.7449</ele>
        <time>2011-09-03T11:24:03Z</time>
      </trkpt>
      <trkpt lat="59.3905188" lon="17.9510648">
        <ele>35.2255</ele>
        <time>2011-09-03T11:24:07Z</time>
      </trkpt>
      <trkpt lat="59.3904244" lon="17.9510883">
        <ele>35.2255</ele>
        <time>2011-09-03T11:24:11Z</time>
      </trkpt>
      <trkpt lat="59.3903481" lon="17.9512183">
        <ele>36.1868</ele>
        <time>2011-09-03T11:24:16Z</time>
      </trkpt>
      <trkpt lat="59.3902789" lon="17.9514564">
        <ele>34.2642</ele>
        <time>2011-09-03T11:24:22Z</time>
      </trkpt>
      <trkpt lat="59.3902068" lon="17.9516342">
        <ele>28.4962</ele>
        <time>2011-09-03T11:24:27Z</time>
      </trkpt>
      <trkpt lat="59.3901263" lon="17.9519612">
        <ele>22.2476</ele>
        <time>2011-09-03T11:24:34Z</time>
      </trkpt>
      <trkpt lat="59.3900964" lon="17.9522051">
        <ele>22.7283</ele>
        <time>2011-09-03T11:24:39Z</time>
      </trkpt>
      <trkpt lat="59.3900606" lon="17.9523491">
        <ele>18.4023</ele>
        <time>2011-09-03T11:24:42Z</time>
      </trkpt>
      <trkpt lat="59.3900369" lon="17.9526124">
        <ele>12.6344</ele>
        <time>2011-09-03T11:24:48Z</time>
      </trkpt>
      <trkpt lat="59.3900401" lon="17.9526569">
        <ele>12.6344</ele>
        <time>2011-09-03T11:24:49Z</time>
      </trkpt>
      <trkpt lat="59.3900951" lon="17.9529941">
        <ele>14.0764</ele>
        <time>2011-09-03T11:24:55Z</time>
      </trkpt>
      <trkpt lat="59.3901343" lon="17.9531934">
        <ele>16.4797</ele>
        <time>2011-09-03T11:24:59Z</time>
      </trkpt>
      <trkpt lat="59.390199" lon="17.9534209">
        <ele>17.9218</ele>
        <time>2011-09-03T11:25:04Z</time>
      </trkpt>
      <trkpt lat="59.3902688" lon="17.9535674">
        <ele>18.4023</ele>
        <time>2011-09-03T11:25:08Z</time>
      </trkpt>
      <trkpt lat="59.3903948" lon="17.9537167">
        <ele>20.8057</ele>
        <time>2011-09-03T11:25:13Z</time>
      </trkpt>
      <trkpt lat="59.3905078" lon="17.9538777">
        <ele>22.2476</ele>
        <time>2011-09-03T11:25:18Z</time>
      </trkpt>
      <trkpt lat="59.3905813" lon="17.9540238">
        <ele>26.0929</ele>
        <time>2011-09-03T11:25:22Z</time>
      </trkpt>
      <trkpt lat="59.3905934" lon="17.9540549">
        <ele>27.0543</ele>
        <time>2011-09-03T11:25:23Z</time>
      </trkpt>
      <trkpt lat="59.3906146" lon="17.9543065">
        <ele>28.0155</ele>
        <time>2011-09-03T11:25:28Z</time>
      </trkpt>
      <trkpt lat="59.3906238" lon="17.9544179">
        <ele>26.5736</ele>
        <time>2011-09-03T11:25:30Z</time>
      </trkpt>
      <trkpt lat="59.3906269" lon="17.9548138">
        <ele>25.6123</ele>
        <time>2011-09-03T11:25:37Z</time>
      </trkpt>
      <trkpt lat="59.3906206" lon="17.9550434">
        <ele>29.9381</ele>
        <time>2011-09-03T11:25:41Z</time>
      </trkpt>
      <trkpt lat="59.3906014" lon="17.9552277">
        <ele>33.3029</ele>
        <time>2011-09-03T11:25:44Z</time>
      </trkpt>
      <trkpt lat="59.3905632" lon="17.9556542">
        <ele>31.3801</ele>
        <time>2011-09-03T11:25:51Z</time>
      </trkpt>
      <trkpt lat="59.3906164" lon="17.9559747">
        <ele>28.0155</ele>
        <time>2011-09-03T11:25:55Z</time>
      </trkpt>
      <trkpt lat="59.390639" lon="17.9561642">
        <ele>29.4575</ele>
        <time>2011-09-03T11:25:58Z</time>
      </trkpt>
      <trkpt lat="59.3906207" lon="17.9563695">
        <ele>26.5736</ele>
        <time>2011-09-03T11:26:01Z</time>
      </trkpt>
      <trkpt lat="59.390541" lon="17.9565864">
        <ele>26.5736</ele>
        <time>2011-09-03T11:26:05Z</time>
      </trkpt>
      <trkpt lat="59.3903881" lon="17.9568738">
        <ele>27.0543</ele>
        <time>2011-09-03T11:26:11Z</time>
      </trkpt>
      <trkpt lat="59.390358" lon="17.9569087">
        <ele>24.651</ele>
        <time>2011-09-03T11:26:12Z</time>
      </trkpt>
      <trkpt lat="59.3902379" lon="17.9570989">
        <ele>21.767</ele>
        <time>2011-09-03T11:26:17Z</time>
      </trkpt>
      <trkpt lat="59.3901229" lon="17.9573122">
        <ele>19.3638</ele>
        <time>2011-09-03T11:26:22Z</time>
      </trkpt>
      <trkpt lat="59.3900189" lon="17.9575938">
        <ele>11.6732</ele>
        <time>2011-09-03T11:26:27Z</time>
      </trkpt>
      <trkpt lat="59.389956" lon="17.9577835">
        <ele>6.86646</ele>
        <time>2011-09-03T11:26:31Z</time>
      </trkpt>
      <trkpt lat="59.3898385" lon="17.9579629">
        <ele>4.94385</ele>
        <time>2011-09-03T11:26:36Z</time>
      </trkpt>
      <trkpt lat="59.3897677" lon="17.9581216">
        <ele>5.42456</ele>
        <time>2011-09-03T11:26:40Z</time>
      </trkpt>
      <trkpt lat="59.3896737" lon="17.9583537">
        <ele>9.75061</ele>
        <time>2011-09-03T11:26:46Z</time>
      </trkpt>
      <trkpt lat="59.3895861" lon="17.9586165">
        <ele>10.7118</ele>
        <time>2011-09-03T11:26:51Z</time>
      </trkpt>
      <trkpt lat="59.389491" lon="17.9588961">
        <ele>9.2699</ele>
        <time>2011-09-03T11:26:56Z</time>
      </trkpt>
      <trkpt lat="59.3893744" lon="17.9591775">
        <ele>6.86646</ele>
        <time>2011-09-03T11:27:02Z</time>
      </trkpt>
      <trkpt lat="59.3892739" lon="17.959384">
        <ele>6.86646</ele>
        <time>2011-09-03T11:27:07Z</time>
      </trkpt>
      <trkpt lat="59.389137" lon="17.95964">
        <ele>5.42456</ele>
        <time>2011-09-03T11:27:14Z</time>
      </trkpt>
      <trkpt lat="59.3890476" lon="17.9598468">
        <ele>4.94385</ele>
        <time>2011-09-03T11:27:19Z</time>
      </trkpt>
      <trkpt lat="59.3889795" lon="17.9601321">
        <ele>9.2699</ele>
        <time>2011-09-03T11:27:25Z</time>
      </trkpt>
      <trkpt lat="59.3889278" lon="17.960455">
        <ele>9.75061</ele>
        <time>2011-09-03T11:27:31Z</time>
      </trkpt>
      <trkpt lat="59.3888292" lon="17.9607352">
        <ele>10.2312</ele>
        <time>2011-09-03T11:27:37Z</time>
      </trkpt>
      <trkpt lat="59.3886959" lon="17.9609713">
        <ele>13.1151</ele>
        <time>2011-09-03T11:27:43Z</time>
      </trkpt>
      <trkpt lat="59.3886098" lon="17.9611154">
        <ele>13.5958</ele>
        <time>2011-09-03T11:27:47Z</time>
      </trkpt>
      <trkpt lat="59.388504" lon="17.9613527">
        <ele>14.557</ele>
        <time>2011-09-03T11:27:53Z</time>
      </trkpt>
      <trkpt lat="59.3884269" lon="17.9615745">
        <ele>14.557</ele>
        <time>2011-09-03T11:27:58Z</time>
      </trkpt>
      <trkpt lat="59.3883208" lon="17.9619007">
        <ele>13.5958</ele>
        <time>2011-09-03T11:28:05Z</time>
      </trkpt>
      <trkpt lat="59.388285" lon="17.9620746">
        <ele>14.557</ele>
        <time>2011-09-03T11:28:09Z</time>
      </trkpt>
      <trkpt lat="59.3882606" lon="17.962214">
        <ele>13.5958</ele>
        <time>2011-09-03T11:28:13Z</time>
      </trkpt>
      <trkpt lat="59.3882033" lon="17.9624264">
        <ele>12.6344</ele>
        <time>2011-09-03T11:28:18Z</time>
      </trkpt>
      <trkpt lat="59.3881353" lon="17.9625668">
        <ele>11.1925</ele>
        <time>2011-09-03T11:28:22Z</time>
      </trkpt>
      <trkpt lat="59.3880942" lon="17.9627198">
        <ele>16.4797</ele>
        <time>2011-09-03T11:28:26Z</time>
      </trkpt>
      <trkpt lat="59.3879374" lon="17.9629617">
        <ele>16.4797</ele>
        <time>2011-09-03T11:28:33Z</time>
      </trkpt>
      <trkpt lat="59.3878913" lon="17.9630293">
        <ele>18.4023</ele>
        <time>2011-09-03T11:28:35Z</time>
      </trkpt>
      <trkpt lat="59.3877634" lon="17.9632375">
        <ele>26.5736</ele>
        <time>2011-09-03T11:28:41Z</time>
      </trkpt>
      <trkpt lat="59.387649" lon="17.9634195">
        <ele>30.4188</ele>
        <time>2011-09-03T11:28:46Z</time>
      </trkpt>
      <trkpt lat="59.3875629" lon="17.9635203">
        <ele>30.4188</ele>
        <time>2011-09-03T11:28:50Z</time>
      </trkpt>
      <trkpt lat="59.3874537" lon="17.9636521">
        <ele>29.9381</ele>
        <time>2011-09-03T11:28:55Z</time>
      </trkpt>
      <trkpt lat="59.3873439" lon="17.963774">
        <ele>30.4188</ele>
        <time>2011-09-03T11:29:00Z</time>
      </trkpt>
      <trkpt lat="59.3872349" lon="17.9638571">
        <ele>30.4188</ele>
        <time>2011-09-03T11:29:05Z</time>
      </trkpt>
      <trkpt lat="59.3871547" lon="17.9639664">
        <ele>29.4575</ele>
        <time>2011-09-03T11:29:09Z</time>
      </trkpt>
      <trkpt lat="59.3870435" lon="17.9641125">
        <ele>26.5736</ele>
        <time>2011-09-03T11:29:14Z</time>
      </trkpt>
      <trkpt lat="59.3869173" lon="17.9642365">
        <ele>26.0929</ele>
        <time>2011-09-03T11:29:19Z</time>
      </trkpt>
      <trkpt lat="59.3867801" lon="17.964297">
        <ele>24.651</ele>
        <time>2011-09-03T11:29:24Z</time>
      </trkpt>
      <trkpt lat="59.3866094" lon="17.9642634">
        <ele>28.4962</ele>
        <time>2011-09-03T11:29:30Z</time>
      </trkpt>
      <trkpt lat="59.3865001" lon="17.9642586">
        <ele>28.0155</ele>
        <time>2011-09-03T11:29:34Z</time>
      </trkpt>
      <trkpt lat="59.3864196" lon="17.9641235">
        <ele>29.4575</ele>
        <time>2011-09-03T11:29:38Z</time>
      </trkpt>
      <trkpt lat="59.3862627" lon="17.9638267">
        <ele>24.651</ele>
        <time>2011-09-03T11:29:44Z</time>
      </trkpt>
      <trkpt lat="59.3861457" lon="17.9635671">
        <ele>25.6123</ele>
        <time>2011-09-03T11:29:48Z</time>
      </trkpt>
      <trkpt lat="59.3860618" lon="17.9633848">
        <ele>24.651</ele>
        <time>2011-09-03T11:29:52Z</time>
      </trkpt>
      <trkpt lat="59.3859513" lon="17.9631963">
        <ele>23.6896</ele>
        <time>2011-09-03T11:29:57Z</time>
      </trkpt>
      <trkpt lat="59.3858476" lon="17.9629579">
        <ele>28.4962</ele>
        <time>2011-09-03T11:30:03Z</time>
      </trkpt>
      <trkpt lat="59.3857718" lon="17.9627735">
        <ele>30.4188</ele>
        <time>2011-09-03T11:30:08Z</time>
      </trkpt>
      <trkpt lat="59.3856652" lon="17.9625734">
        <ele>28.0155</ele>
        <time>2011-09-03T11:30:13Z</time>
      </trkpt>
      <trkpt lat="59.3855458" lon="17.9624033">
        <ele>28.4962</ele>
        <time>2011-09-03T11:30:18Z</time>
      </trkpt>
      <trkpt lat="59.3854742" lon="17.962425">
        <ele>34.2642</ele>
        <time>2011-09-03T11:30:22Z</time>
      </trkpt>
      <trkpt lat="59.3854458" lon="17.9624357">
        <ele>34.2642</ele>
        <time>2011-09-03T11:30:23Z</time>
      </trkpt>
      <trkpt lat="59.385308" lon="17.9622566">
        <ele>35.7061</ele>
        <time>2011-09-03T11:30:30Z</time>
      </trkpt>
      <trkpt lat="59.3852534" lon="17.9620282">
        <ele>35.2255</ele>
        <time>2011-09-03T11:30:35Z</time>
      </trkpt>
      <trkpt lat="59.3851916" lon="17.9618505">
        <ele>31.8607</ele>
        <time>2011-09-03T11:30:39Z</time>
      </trkpt>
      <trkpt lat="59.3851455" lon="17.9616256">
        <ele>29.9381</ele>
        <time>2011-09-03T11:30:43Z</time>
      </trkpt>
      <trkpt lat="59.3850923" lon="17.9613718">
        <ele>28.4962</ele>
        <time>2011-09-03T11:30:47Z</time>
      </trkpt>
      <trkpt lat="59.3850959" lon="17.9611443">
        <ele>28.4962</ele>
        <time>2011-09-03T11:30:51Z</time>
      </trkpt>
      <trkpt lat="59.3850853" lon="17.9610479">
        <ele>28.4962</ele>
        <time>2011-09-03T11:30:53Z</time>
      </trkpt>
      <trkpt lat="59.3850369" lon="17.9607384">
        <ele>25.6123</ele>
        <time>2011-09-03T11:30:58Z</time>
      </trkpt>
      <trkpt lat="59.3849952" lon="17.9604822">
        <ele>24.1703</ele>
        <time>2011-09-03T11:31:03Z</time>
      </trkpt>
      <trkpt lat="59.3849796" lon="17.960185">
        <ele>24.651</ele>
        <time>2011-09-03T11:31:08Z</time>
      </trkpt>
      <trkpt lat="59.3849509" lon="17.9598492">
        <ele>26.5736</ele>
        <time>2011-09-03T11:31:14Z</time>
      </trkpt>
      <trkpt lat="59.3849376" lon="17.9597428">
        <ele>27.5349</ele>
        <time>2011-09-03T11:31:16Z</time>
      </trkpt>
      <trkpt lat="59.3849273" lon="17.9595209">
        <ele>28.4962</ele>
        <time>2011-09-03T11:31:21Z</time>
      </trkpt>
      <trkpt lat="59.3848831" lon="17.9592302">
        <ele>27.5349</ele>
        <time>2011-09-03T11:31:26Z</time>
      </trkpt>
      <trkpt lat="59.3848163" lon="17.9589836">
        <ele>26.5736</ele>
        <time>2011-09-03T11:31:30Z</time>
      </trkpt>
      <trkpt lat="59.3847983" lon="17.9589306">
        <ele>26.5736</ele>
        <time>2011-09-03T11:31:31Z</time>
      </trkpt>
      <trkpt lat="59.3847831" lon="17.9588754">
        <ele>27.0543</ele>
        <time>2011-09-03T11:31:32Z</time>
      </trkpt>
      <trkpt lat="59.3846869" lon="17.958787">
        <ele>28.9769</ele>
        <time>2011-09-03T11:31:37Z</time>
      </trkpt>
      <trkpt lat="59.3845831" lon="17.9588621">
        <ele>31.3801</ele>
        <time>2011-09-03T11:31:42Z</time>
      </trkpt>
      <trkpt lat="59.3844954" lon="17.9591167">
        <ele>30.8995</ele>
        <time>2011-09-03T11:31:49Z</time>
      </trkpt>
      <trkpt lat="59.3844268" lon="17.9593351">
        <ele>29.9381</ele>
        <time>2011-09-03T11:31:54Z</time>
      </trkpt>
      <trkpt lat="59.3844005" lon="17.9595832">
        <ele>28.4962</ele>
        <time>2011-09-03T11:31:59Z</time>
      </trkpt>
      <trkpt lat="59.3844434" lon="17.9598033">
        <ele>28.9769</ele>
        <time>2011-09-03T11:32:04Z</time>
      </trkpt>
      <trkpt lat="59.3844894" lon="17.9600892">
        <ele>27.5349</ele>
        <time>2011-09-03T11:32:09Z</time>
      </trkpt>
      <trkpt lat="59.3845184" lon="17.9603691">
        <ele>26.0929</ele>
        <time>2011-09-03T11:32:14Z</time>
      </trkpt>
      <trkpt lat="59.3845406" lon="17.9606825">
        <ele>23.209</ele>
        <time>2011-09-03T11:32:20Z</time>
      </trkpt>
      <trkpt lat="59.3845756" lon="17.9610226">
        <ele>24.651</ele>
        <time>2011-09-03T11:32:26Z</time>
      </trkpt>
      <trkpt lat="59.3846252" lon="17.961268">
        <ele>25.6123</ele>
        <time>2011-09-03T11:32:31Z</time>
      </trkpt>
      <trkpt lat="59.384646" lon="17.9614884">
        <ele>25.1317</ele>
        <time>2011-09-03T11:32:36Z</time>
      </trkpt>
      <trkpt lat="59.3846761" lon="17.9617261">
        <ele>28.0155</ele>
        <time>2011-09-03T11:32:41Z</time>
      </trkpt>
      <trkpt lat="59.3847057" lon="17.9620077">
        <ele>28.0155</ele>
        <time>2011-09-03T11:32:47Z</time>
      </trkpt>
      <trkpt lat="59.3847541" lon="17.9623136">
        <ele>26.5736</ele>
        <time>2011-09-03T11:32:53Z</time>
      </trkpt>
      <trkpt lat="59.3848082" lon="17.9626663">
        <ele>26.5736</ele>
        <time>2011-09-03T11:32:59Z</time>
      </trkpt>
      <trkpt lat="59.3848347" lon="17.962897">
        <ele>26.0929</ele>
        <time>2011-09-03T11:33:03Z</time>
      </trkpt>
      <trkpt lat="59.3848361" lon="17.9632468">
        <ele>23.209</ele>
        <time>2011-09-03T11:33:08Z</time>
      </trkpt>
      <trkpt lat="59.3848584" lon="17.9635826">
        <ele>23.6896</ele>
        <time>2011-09-03T11:33:13Z</time>
      </trkpt>
      <trkpt lat="59.3848634" lon="17.9639122">
        <ele>20.8057</ele>
        <time>2011-09-03T11:33:18Z</time>
      </trkpt>
      <trkpt lat="59.3848631" lon="17.9643607">
        <ele>15.999</ele>
        <time>2011-09-03T11:33:25Z</time>
      </trkpt>
      <trkpt lat="59.3848341" lon="17.9647689">
        <ele>15.0377</ele>
        <time>2011-09-03T11:33:32Z</time>
      </trkpt>
      <trkpt lat="59.3847791" lon="17.964984">
        <ele>14.0764</ele>
        <time>2011-09-03T11:33:36Z</time>
      </trkpt>
      <trkpt lat="59.3847033" lon="17.9652443">
        <ele>14.557</ele>
        <time>2011-09-03T11:33:41Z</time>
      </trkpt>
      <trkpt lat="59.3846195" lon="17.965403">
        <ele>14.557</ele>
        <time>2011-09-03T11:33:45Z</time>
      </trkpt>
      <trkpt lat="59.3844904" lon="17.9655543">
        <ele>14.0764</ele>
        <time>2011-09-03T11:33:50Z</time>
      </trkpt>
      <trkpt lat="59.3844181" lon="17.9656387">
        <ele>13.1151</ele>
        <time>2011-09-03T11:33:53Z</time>
      </trkpt>
      <trkpt lat="59.3843395" lon="17.9658726">
        <ele>11.1925</ele>
        <time>2011-09-03T11:33:59Z</time>
      </trkpt>
      <trkpt lat="59.3842575" lon="17.9661557">
        <ele>11.1925</ele>
        <time>2011-09-03T11:34:05Z</time>
      </trkpt>
      <trkpt lat="59.3841547" lon="17.9663613">
        <ele>9.2699</ele>
        <time>2011-09-03T11:34:10Z</time>
      </trkpt>
      <trkpt lat="59.3840296" lon="17.9665662">
        <ele>9.75061</ele>
        <time>2011-09-03T11:34:16Z</time>
      </trkpt>
      <trkpt lat="59.3839311" lon="17.9667356">
        <ele>11.6732</ele>
        <time>2011-09-03T11:34:21Z</time>
      </trkpt>
      <trkpt lat="59.3838157" lon="17.9669394">
        <ele>16.9604</ele>
        <time>2011-09-03T11:34:26Z</time>
      </trkpt>
      <trkpt lat="59.3837023" lon="17.9671856">
        <ele>19.3638</ele>
        <time>2011-09-03T11:34:31Z</time>
      </trkpt>
      <trkpt lat="59.3836912" lon="17.9674384">
        <ele>21.2864</ele>
        <time>2011-09-03T11:34:35Z</time>
      </trkpt>
      <trkpt lat="59.3836851" lon="17.967732">
        <ele>22.2476</ele>
        <time>2011-09-03T11:34:41Z</time>
      </trkpt>
      <trkpt lat="59.3836535" lon="17.9680018">
        <ele>23.209</ele>
        <time>2011-09-03T11:34:46Z</time>
      </trkpt>
      <trkpt lat="59.3835835" lon="17.9683023">
        <ele>21.2864</ele>
        <time>2011-09-03T11:34:52Z</time>
      </trkpt>
      <trkpt lat="59.383537" lon="17.968625">
        <ele>16.9604</ele>
        <time>2011-09-03T11:34:58Z</time>
      </trkpt>
      <trkpt lat="59.383527" lon="17.9689653">
        <ele>21.2864</ele>
        <time>2011-09-03T11:35:04Z</time>
      </trkpt>
      <trkpt lat="59.3835295" lon="17.9690108">
        <ele>21.2864</ele>
        <time>2011-09-03T11:35:05Z</time>
      </trkpt>
      <trkpt lat="59.3834744" lon="17.9691678">
        <ele>21.2864</ele>
        <time>2011-09-03T11:35:09Z</time>
      </trkpt>
      <trkpt lat="59.3832935" lon="17.9692397">
        <ele>27.0543</ele>
        <time>2011-09-03T11:35:15Z</time>
      </trkpt>
      <trkpt lat="59.3831363" lon="17.9690804">
        <ele>26.5736</ele>
        <time>2011-09-03T11:35:20Z</time>
      </trkpt>
      <trkpt lat="59.3829983" lon="17.968937">
        <ele>24.1703</ele>
        <time>2011-09-03T11:35:24Z</time>
      </trkpt>
      <trkpt lat="59.3828278" lon="17.9687877">
        <ele>19.3638</ele>
        <time>2011-09-03T11:35:28Z</time>
      </trkpt>
      <trkpt lat="59.382624" lon="17.968608">
        <ele>15.999</ele>
        <time>2011-09-03T11:35:33Z</time>
      </trkpt>
      <trkpt lat="59.3823558" lon="17.9686124">
        <ele>15.0377</ele>
        <time>2011-09-03T11:35:38Z</time>
      </trkpt>
      <trkpt lat="59.3822145" lon="17.9688748">
        <ele>13.5958</ele>
        <time>2011-09-03T11:35:42Z</time>
      </trkpt>
      <trkpt lat="59.3820773" lon="17.9692086">
        <ele>13.1151</ele>
        <time>2011-09-03T11:35:46Z</time>
      </trkpt>
      <trkpt lat="59.382048" lon="17.9692842">
        <ele>13.1151</ele>
        <time>2011-09-03T11:35:47Z</time>
      </trkpt>
      <trkpt lat="59.3820197" lon="17.9693493">
        <ele>13.5958</ele>
        <time>2011-09-03T11:35:48Z</time>
      </trkpt>
    </trkseg>
  </trk>
</gpx>